FIN10 KORD-EFHK
Flight info
| Callsign | FIN10 |
|---|---|
| Flight time | 8h 0m |
| Altitude | 31000 |
| Route | PMPKN DCT NEATO DCT DLLAN DCT RONIC DCT BAE DCT GRB DCT KP09O DCT YMO DCT HELMO/N0484F330 DCT TEFFO DCT AVPUT/M084F330 DCT 67N050W 68N040W 6930N03000W/M083F350 6930N02000W 69N010W 68N000E/N0485F350 DCT GUBNO DCT ODEVI DCT UXADA Y349 AMROT Y362 LAKUT |
| Aircraft | A346/H-SDE2E3FGHIJ3J4J5M1RWXY/LB1D1 |
Departure
| Time | 2026-04-25 07:02 |
|---|---|
| Airport | Chicago O'Hare International Airport (KORD) |
Arrival
| Time | 2026-04-25 15:02 |
|---|---|
| Airport | Helsinki Vantaa Airport (EFHK) |
| Time | Latitude | Longitude | Altitude | Speed | Heading |
|---|---|---|---|---|---|
| 2026-04-25 05:18 | 41.97337 | -87.89740 | 674 ft | 0 kts | 19° |
| 2026-04-25 06:43 | 41.97323 | -87.89748 | 675 ft | 4 kts | 44° |
| 2026-04-25 06:43 | 41.97317 | -87.89764 | 674 ft | 3 kts | 85° |
| 2026-04-25 06:44 | 41.97318 | -87.89790 | 672 ft | 4 kts | 112° |
| 2026-04-25 06:44 | 41.97330 | -87.89809 | 673 ft | 4 kts | 144° |
| 2026-04-25 06:44 | 41.97347 | -87.89824 | 672 ft | 0 kts | 144° |
| 2026-04-25 06:45 | 41.97347 | -87.89825 | 672 ft | 0 kts | 144° |
| 2026-04-25 06:46 | 41.97346 | -87.89824 | 672 ft | 0 kts | 144° |
| 2026-04-25 06:46 | 41.97338 | -87.89816 | 672 ft | 3 kts | 144° |
| 2026-04-25 06:46 | 41.97316 | -87.89796 | 672 ft | 5 kts | 145° |
| 2026-04-25 06:47 | 41.97284 | -87.89787 | 675 ft | 6 kts | 192° |
| 2026-04-25 06:47 | 41.97244 | -87.89820 | 679 ft | 8 kts | 222° |
| 2026-04-25 06:47 | 41.97215 | -87.89889 | 679 ft | 9 kts | 254° |
| 2026-04-25 06:47 | 41.97208 | -87.89973 | 679 ft | 5 kts | 268° |
| 2026-04-25 06:48 | 41.97207 | -87.90034 | 679 ft | 8 kts | 269° |
| 2026-04-25 06:48 | 41.97206 | -87.90114 | 679 ft | 9 kts | 269° |
| 2026-04-25 06:48 | 41.97195 | -87.90203 | 679 ft | 10 kts | 235° |
| 2026-04-25 06:48 | 41.97153 | -87.90253 | 677 ft | 7 kts | 236° |
| 2026-04-25 06:49 | 41.97141 | -87.90321 | 678 ft | 8 kts | 266° |
| 2026-04-25 06:49 | 41.97140 | -87.90407 | 678 ft | 10 kts | 268° |
| 2026-04-25 06:49 | 41.97098 | -87.90473 | 678 ft | 11 kts | 201° |
| 2026-04-25 06:49 | 41.97047 | -87.90553 | 678 ft | 13 kts | 258° |
| 2026-04-25 06:50 | 41.97043 | -87.90678 | 678 ft | 14 kts | 269° |
| 2026-04-25 06:50 | 41.97043 | -87.90810 | 678 ft | 15 kts | 270° |
| 2026-04-25 06:50 | 41.97042 | -87.90940 | 678 ft | 14 kts | 270° |
| 2026-04-25 06:50 | 41.97042 | -87.91052 | 679 ft | 10 kts | 270° |
| 2026-04-25 06:51 | 41.97042 | -87.91127 | 679 ft | 8 kts | 270° |
| 2026-04-25 06:51 | 41.97042 | -87.91204 | 679 ft | 9 kts | 270° |
| 2026-04-25 06:51 | 41.97042 | -87.91293 | 679 ft | 10 kts | 270° |
| 2026-04-25 06:51 | 41.97042 | -87.91394 | 670 ft | 11 kts | 270° |
| 2026-04-25 06:52 | 41.97042 | -87.91495 | 680 ft | 9 kts | 270° |
| 2026-04-25 06:52 | 41.97042 | -87.91580 | 680 ft | 10 kts | 270° |
| 2026-04-25 06:52 | 41.97041 | -87.91670 | 680 ft | 9 kts | 270° |
| 2026-04-25 06:52 | 41.97041 | -87.91758 | 680 ft | 9 kts | 269° |
| 2026-04-25 06:53 | 41.97040 | -87.91843 | 680 ft | 9 kts | 269° |
| 2026-04-25 06:53 | 41.97040 | -87.91926 | 680 ft | 9 kts | 270° |
| 2026-04-25 06:53 | 41.97040 | -87.92005 | 679 ft | 8 kts | 270° |
| 2026-04-25 06:53 | 41.97040 | -87.92081 | 679 ft | 8 kts | 270° |
| 2026-04-25 06:54 | 41.97040 | -87.92153 | 679 ft | 8 kts | 270° |
| 2026-04-25 06:54 | 41.97041 | -87.92223 | 679 ft | 7 kts | 270° |
| 2026-04-25 06:54 | 41.97040 | -87.92288 | 679 ft | 7 kts | 269° |
| 2026-04-25 06:54 | 41.97039 | -87.92350 | 679 ft | 7 kts | 269° |
| 2026-04-25 06:55 | 41.97039 | -87.92425 | 679 ft | 9 kts | 270° |
| 2026-04-25 06:55 | 41.97039 | -87.92510 | 679 ft | 10 kts | 270° |
| 2026-04-25 06:55 | 41.97039 | -87.92605 | 679 ft | 11 kts | 270° |
| 2026-04-25 06:55 | 41.97039 | -87.92707 | 679 ft | 11 kts | 270° |
| 2026-04-25 06:56 | 41.97039 | -87.92807 | 680 ft | 10 kts | 270° |
| 2026-04-25 06:56 | 41.97039 | -87.92901 | 680 ft | 10 kts | 270° |
| 2026-04-25 06:56 | 41.97039 | -87.92988 | 681 ft | 9 kts | 270° |
| 2026-04-25 06:56 | 41.97037 | -87.93062 | 681 ft | 7 kts | 261° |
| 2026-04-25 06:57 | 41.97020 | -87.93110 | 682 ft | 5 kts | 226° |
| 2026-04-25 06:57 | 41.97013 | -87.93118 | 677 ft | 0 kts | 214° |
| 2026-04-25 06:58 | 41.97012 | -87.93119 | 678 ft | 0 kts | 214° |
| 2026-04-25 06:58 | 41.97010 | -87.93121 | 678 ft | 2 kts | 213° |
| 2026-04-25 06:58 | 41.96997 | -87.93130 | 681 ft | 1 kts | 201° |
| 2026-04-25 06:59 | 41.96996 | -87.93130 | 681 ft | 0 kts | 201° |
| 2026-04-25 06:59 | 41.96984 | -87.93134 | 681 ft | 5 kts | 192° |
| 2026-04-25 06:59 | 41.96935 | -87.93136 | 682 ft | 7 kts | 175° |
| 2026-04-25 06:59 | 41.96908 | -87.93100 | 681 ft | 6 kts | 103° |
| 2026-04-25 07:00 | 41.96902 | -87.93044 | 685 ft | 5 kts | 91° |
| 2026-04-25 07:00 | 41.96902 | -87.93031 | 685 ft | 0 kts | 90° |
| 2026-04-25 07:00 | 41.96902 | -87.93011 | 679 ft | 14 kts | 90° |
| 2026-04-25 07:00 | 41.96903 | -87.92626 | 681 ft | 68 kts | 90° |
| 2026-04-25 07:01 | 41.96906 | -87.91771 | 682 ft | 115 kts | 89° |
| 2026-04-25 07:01 | 41.96906 | -87.90483 | 676 ft | 156 kts | 90° |
| 2026-04-25 07:01 | 41.96909 | -87.88868 | 721 ft | 185 kts | 87° |
| 2026-04-25 07:01 | 41.96909 | -87.87137 | 1173 ft | 182 kts | 85° |
| 2026-04-25 07:02 | 41.96938 | -87.85453 | 1742 ft | 179 kts | 84° |
| 2026-04-25 07:02 | 41.96970 | -87.83740 | 2086 ft | 188 kts | 82° |
| 2026-04-25 07:02 | 41.97278 | -87.81995 | 2361 ft | 195 kts | 60° |
| 2026-04-25 07:02 | 41.98110 | -87.80532 | 2600 ft | 203 kts | 36° |
| 2026-04-25 07:03 | 41.99414 | -87.79686 | 2774 ft | 217 kts | 10° |
| 2026-04-25 07:03 | 42.00990 | -87.79716 | 2836 ft | 240 kts | 345° |
| 2026-04-25 07:03 | 42.02546 | -87.80729 | 3100 ft | 256 kts | 323° |
| 2026-04-25 07:03 | 42.03806 | -87.82397 | 3893 ft | 251 kts | 311° |
| 2026-04-25 07:04 | 42.04884 | -87.84278 | 4533 ft | 255 kts | 310° |
| 2026-04-25 07:04 | 42.06118 | -87.86009 | 5115 ft | 257 kts | 322° |
| 2026-04-25 07:04 | 42.07633 | -87.87297 | 5749 ft | 258 kts | 337° |
| 2026-04-25 07:04 | 42.09361 | -87.87958 | 6433 ft | 259 kts | 348° |
| 2026-04-25 07:05 | 42.11142 | -87.88377 | 7082 ft | 261 kts | 349° |
| 2026-04-25 07:05 | 42.12941 | -87.88787 | 7713 ft | 263 kts | 349° |
| 2026-04-25 07:05 | 42.14753 | -87.89221 | 8367 ft | 266 kts | 349° |
| 2026-04-25 07:05 | 42.16560 | -87.89671 | 9007 ft | 268 kts | 349° |
| 2026-04-25 07:06 | 42.18406 | -87.90141 | 9655 ft | 271 kts | 349° |
| 2026-04-25 07:06 | 42.20269 | -87.90620 | 10228 ft | 275 kts | 349° |
| 2026-04-25 07:06 | 42.22190 | -87.91119 | 10564 ft | 288 kts | 349° |
| 2026-04-25 07:06 | 42.24211 | -87.91648 | 10828 ft | 303 kts | 348° |
| 2026-04-25 07:07 | 42.26334 | -87.92206 | 11095 ft | 318 kts | 348° |
| 2026-04-25 07:07 | 42.28556 | -87.92791 | 11350 ft | 333 kts | 348° |
| 2026-04-25 07:07 | 42.30884 | -87.93339 | 11611 ft | 347 kts | 351° |
| 2026-04-25 07:07 | 42.33349 | -87.93716 | 11900 ft | 361 kts | 354° |
| 2026-04-25 07:08 | 42.35877 | -87.94022 | 12413 ft | 366 kts | 354° |
| 2026-04-25 07:08 | 42.38425 | -87.94317 | 13086 ft | 368 kts | 354° |
| 2026-04-25 07:08 | 42.40999 | -87.94614 | 13742 ft | 371 kts | 353° |
| 2026-04-25 07:08 | 42.43580 | -87.94918 | 14292 ft | 375 kts | 353° |
| 2026-04-25 07:09 | 42.46193 | -87.95231 | 14814 ft | 378 kts | 353° |
| 2026-04-25 07:09 | 42.48797 | -87.95546 | 15331 ft | 382 kts | 353° |
| 2026-04-25 07:09 | 42.51459 | -87.95875 | 15863 ft | 386 kts | 353° |
| 2026-04-25 07:09 | 42.54147 | -87.96208 | 16386 ft | 390 kts | 353° |
| 2026-04-25 07:10 | 42.56865 | -87.96544 | 16889 ft | 394 kts | 353° |
| 2026-04-25 07:10 | 42.59605 | -87.96882 | 17408 ft | 397 kts | 353° |
| 2026-04-25 07:10 | 42.62370 | -87.97203 | 17920 ft | 401 kts | 354° |
| 2026-04-25 07:10 | 42.65177 | -87.97431 | 18408 ft | 405 kts | 355° |
| 2026-04-25 07:11 | 42.68003 | -87.97632 | 18833 ft | 409 kts | 355° |
| 2026-04-25 07:11 | 42.70841 | -87.98049 | 19250 ft | 411 kts | 347° |
| 2026-04-25 07:11 | 42.73598 | -87.99077 | 19683 ft | 412 kts | 338° |
| 2026-04-25 07:11 | 42.76204 | -88.00679 | 20112 ft | 414 kts | 330° |
| 2026-04-25 07:12 | 42.78732 | -88.02603 | 20561 ft | 416 kts | 328° |
| 2026-04-25 07:12 | 42.82936 | -88.05914 | 21266 ft | 422 kts | 328° |
| 2026-04-25 07:12 | 42.85490 | -88.07925 | 21697 ft | 425 kts | 328° |
| 2026-04-25 07:13 | 42.88069 | -88.09950 | 22113 ft | 429 kts | 328° |
| 2026-04-25 07:13 | 42.90665 | -88.11985 | 22529 ft | 432 kts | 328° |
| 2026-04-25 07:13 | 42.94134 | -88.14700 | 23075 ft | 436 kts | 328° |
| 2026-04-25 07:13 | 42.96776 | -88.16767 | 23475 ft | 439 kts | 328° |
| 2026-04-25 07:14 | 42.98574 | -88.18174 | 23703 ft | 441 kts | 328° |
| 2026-04-25 07:14 | 43.01204 | -88.20236 | 24043 ft | 444 kts | 328° |
| 2026-04-25 07:14 | 43.03892 | -88.22346 | 24399 ft | 446 kts | 328° |
| 2026-04-25 07:14 | 43.06591 | -88.24465 | 24758 ft | 448 kts | 328° |
| 2026-04-25 07:15 | 43.09380 | -88.26443 | 25072 ft | 454 kts | 335° |
| 2026-04-25 07:15 | 43.12416 | -88.27743 | 25385 ft | 461 kts | 345° |
| 2026-04-25 07:15 | 43.15618 | -88.28270 | 25706 ft | 467 kts | 356° |
| 2026-04-25 07:15 | 43.18888 | -88.28179 | 26051 ft | 470 kts | 360° |
| 2026-04-25 07:16 | 43.22165 | -88.27965 | 26377 ft | 474 kts | 0° |
| 2026-04-25 07:16 | 43.25484 | -88.27729 | 26718 ft | 476 kts | 0° |
| 2026-04-25 07:16 | 43.28825 | -88.27496 | 27063 ft | 477 kts | 0° |
| 2026-04-25 07:16 | 43.32152 | -88.27272 | 27382 ft | 480 kts | 0° |
| 2026-04-25 07:17 | 43.35447 | -88.27058 | 27672 ft | 482 kts | 0° |
| 2026-04-25 07:17 | 43.38860 | -88.26842 | 27974 ft | 485 kts | 0° |
| 2026-04-25 07:17 | 43.42197 | -88.26634 | 28285 ft | 487 kts | 0° |
| 2026-04-25 07:17 | 43.45600 | -88.26423 | 28653 ft | 488 kts | 0° |
| 2026-04-25 07:18 | 43.48982 | -88.26213 | 29137 ft | 486 kts | 360° |
| 2026-04-25 07:18 | 43.52358 | -88.26004 | 29593 ft | 486 kts | 360° |
| 2026-04-25 07:18 | 43.55740 | -88.25795 | 29919 ft | 487 kts | 360° |
| 2026-04-25 07:18 | 43.59141 | -88.25586 | 30172 ft | 490 kts | 360° |
| 2026-04-25 07:19 | 43.62558 | -88.25375 | 30428 ft | 492 kts | 360° |
| 2026-04-25 07:19 | 43.65989 | -88.25163 | 30715 ft | 492 kts | 360° |
| 2026-04-25 07:19 | 43.69398 | -88.24951 | 30967 ft | 494 kts | 360° |
| 2026-04-25 07:19 | 43.72886 | -88.24735 | 30977 ft | 496 kts | 360° |
| 2026-04-25 07:20 | 43.79751 | -88.24309 | 30989 ft | 497 kts | 360° |
| 2026-04-25 07:20 | 43.86661 | -88.23878 | 30990 ft | 496 kts | 360° |
| 2026-04-25 07:21 | 43.93554 | -88.23448 | 30987 ft | 496 kts | 360° |
| 2026-04-25 07:21 | 44.00446 | -88.23017 | 30989 ft | 496 kts | 360° |
| 2026-04-25 07:22 | 44.07346 | -88.22583 | 30993 ft | 497 kts | 359° |
| 2026-04-25 07:22 | 44.14249 | -88.22149 | 30996 ft | 497 kts | 359° |
| 2026-04-25 07:23 | 44.21161 | -88.21713 | 30997 ft | 497 kts | 359° |
| 2026-04-25 07:23 | 44.28089 | -88.21274 | 31002 ft | 499 kts | 359° |
| 2026-04-25 07:24 | 44.35029 | -88.20833 | 31002 ft | 499 kts | 359° |
| 2026-04-25 07:24 | 44.41970 | -88.20389 | 31014 ft | 499 kts | 359° |
| 2026-04-25 07:25 | 44.48922 | -88.19811 | 31004 ft | 503 kts | 5° |
| 2026-04-25 07:25 | 44.55736 | -88.17399 | 31006 ft | 509 kts | 19° |
| 2026-04-25 07:26 | 44.61951 | -88.12725 | 31009 ft | 513 kts | 34° |
| 2026-04-25 07:26 | 44.67643 | -88.06618 | 31007 ft | 515 kts | 37° |
| 2026-04-25 07:27 | 44.73280 | -88.00383 | 31013 ft | 514 kts | 37° |
| 2026-04-25 07:27 | 44.78920 | -87.94190 | 31014 ft | 514 kts | 37° |
| 2026-04-25 07:28 | 44.84582 | -87.87993 | 31015 ft | 514 kts | 37° |
| 2026-04-25 07:28 | 44.90235 | -87.81803 | 31015 ft | 514 kts | 37° |
| 2026-04-25 07:29 | 44.95891 | -87.75597 | 31014 ft | 514 kts | 37° |
| 2026-04-25 07:29 | 45.01508 | -87.69421 | 31005 ft | 516 kts | 37° |
| 2026-04-25 07:30 | 45.07178 | -87.63169 | 31011 ft | 516 kts | 37° |
| 2026-04-25 07:30 | 45.12835 | -87.56912 | 31010 ft | 516 kts | 37° |
| 2026-04-25 07:31 | 45.18490 | -87.50643 | 31018 ft | 516 kts | 37° |
| 2026-04-25 07:31 | 45.24150 | -87.44354 | 31023 ft | 516 kts | 37° |
| 2026-04-25 07:32 | 45.29773 | -87.38088 | 31011 ft | 517 kts | 37° |
| 2026-04-25 07:32 | 45.35467 | -87.31726 | 31023 ft | 517 kts | 37° |
| 2026-04-25 07:33 | 45.41128 | -87.25390 | 31020 ft | 518 kts | 38° |
| 2026-04-25 07:33 | 45.46761 | -87.19062 | 31024 ft | 518 kts | 38° |
| 2026-04-25 07:34 | 45.52417 | -87.12691 | 31020 ft | 518 kts | 38° |
| 2026-04-25 07:34 | 45.58078 | -87.06298 | 31016 ft | 518 kts | 38° |
| 2026-04-25 07:35 | 45.63730 | -86.99899 | 31034 ft | 518 kts | 38° |
| 2026-04-25 07:35 | 45.69388 | -86.93477 | 31016 ft | 518 kts | 38° |
| 2026-04-25 07:36 | 45.75037 | -86.87051 | 31027 ft | 519 kts | 38° |
| 2026-04-25 07:36 | 45.80672 | -86.80636 | 31015 ft | 522 kts | 39° |
| 2026-04-25 07:37 | 45.86347 | -86.74135 | 31018 ft | 522 kts | 39° |
| 2026-04-25 07:37 | 45.92023 | -86.67615 | 31025 ft | 522 kts | 39° |
| 2026-04-25 07:38 | 45.97701 | -86.61084 | 31030 ft | 522 kts | 39° |
| 2026-04-25 07:38 | 46.03360 | -86.54553 | 31017 ft | 522 kts | 39° |
| 2026-04-25 07:39 | 46.09027 | -86.47998 | 31028 ft | 522 kts | 39° |
| 2026-04-25 07:39 | 46.14706 | -86.41417 | 31001 ft | 523 kts | 40° |
| 2026-04-25 07:40 | 46.20347 | -86.34864 | 31029 ft | 525 kts | 40° |
| 2026-04-25 07:40 | 46.26030 | -86.28225 | 31034 ft | 525 kts | 41° |
| 2026-04-25 07:41 | 46.31711 | -86.21578 | 31033 ft | 525 kts | 41° |
| 2026-04-25 07:41 | 46.37400 | -86.14909 | 31041 ft | 525 kts | 41° |
| 2026-04-25 07:42 | 46.43078 | -86.08222 | 31042 ft | 525 kts | 41° |
| 2026-04-25 07:42 | 46.48718 | -86.01579 | 31039 ft | 525 kts | 40° |
| 2026-04-25 07:43 | 46.54645 | -85.95349 | 31020 ft | 527 kts | 37° |
| 2026-04-25 07:43 | 46.60721 | -85.89302 | 31034 ft | 529 kts | 37° |
| 2026-04-25 07:44 | 46.66796 | -85.83228 | 31042 ft | 529 kts | 37° |
| 2026-04-25 07:44 | 46.72868 | -85.77123 | 31045 ft | 529 kts | 37° |
| 2026-04-25 07:45 | 46.78924 | -85.71008 | 31053 ft | 529 kts | 37° |
| 2026-04-25 07:45 | 46.84980 | -85.64875 | 31049 ft | 529 kts | 37° |
| 2026-04-25 07:46 | 46.91031 | -85.58734 | 31044 ft | 529 kts | 38° |
| 2026-04-25 07:46 | 46.97030 | -85.52626 | 31048 ft | 528 kts | 38° |
| 2026-04-25 07:47 | 47.03056 | -85.46467 | 31044 ft | 528 kts | 38° |
| 2026-04-25 07:47 | 47.09085 | -85.40291 | 31048 ft | 528 kts | 38° |
| 2026-04-25 07:48 | 47.15113 | -85.34103 | 31039 ft | 528 kts | 38° |
| 2026-04-25 07:48 | 47.21135 | -85.27898 | 31037 ft | 528 kts | 38° |
| 2026-04-25 07:49 | 47.27118 | -85.21716 | 31037 ft | 528 kts | 38° |
| 2026-04-25 07:49 | 47.33127 | -85.15499 | 31036 ft | 527 kts | 39° |
| 2026-04-25 07:50 | 47.39128 | -85.09262 | 31032 ft | 527 kts | 39° |
| 2026-04-25 07:50 | 47.45117 | -85.03019 | 31035 ft | 527 kts | 39° |
| 2026-04-25 07:51 | 47.51094 | -84.96770 | 31010 ft | 526 kts | 39° |
| 2026-04-25 07:51 | 47.57059 | -84.90518 | 31023 ft | 525 kts | 39° |
| 2026-04-25 07:52 | 47.62973 | -84.84305 | 31033 ft | 524 kts | 39° |
| 2026-04-25 07:52 | 47.68937 | -84.78022 | 31040 ft | 524 kts | 39° |
| 2026-04-25 07:53 | 47.74875 | -84.71752 | 31034 ft | 522 kts | 39° |
| 2026-04-25 07:53 | 47.80789 | -84.65482 | 31040 ft | 522 kts | 39° |
| 2026-04-25 07:54 | 47.86715 | -84.59181 | 31041 ft | 522 kts | 39° |
| 2026-04-25 07:54 | 47.92583 | -84.52929 | 31050 ft | 519 kts | 39° |
| 2026-04-25 07:55 | 47.98449 | -84.46653 | 31036 ft | 518 kts | 39° |
| 2026-04-25 07:55 | 48.04280 | -84.40400 | 31048 ft | 516 kts | 39° |
| 2026-04-25 07:56 | 48.10111 | -84.34142 | 31055 ft | 516 kts | 39° |
| 2026-04-25 07:56 | 48.15941 | -84.27861 | 31054 ft | 516 kts | 39° |
| 2026-04-25 07:57 | 48.21767 | -84.21564 | 31054 ft | 516 kts | 39° |
| 2026-04-25 07:57 | 48.27595 | -84.15247 | 31057 ft | 516 kts | 39° |
| 2026-04-25 07:58 | 48.33420 | -84.08912 | 31059 ft | 517 kts | 39° |
| 2026-04-25 07:58 | 48.39199 | -84.02611 | 31059 ft | 517 kts | 39° |
| 2026-04-25 07:59 | 48.45015 | -83.96252 | 31059 ft | 517 kts | 39° |
| 2026-04-25 07:59 | 48.50832 | -83.89854 | 31054 ft | 518 kts | 38° |
| 2026-04-25 08:00 | 48.56669 | -83.83439 | 31064 ft | 519 kts | 38° |
| 2026-04-25 08:00 | 48.61518 | -83.78097 | 31066 ft | 519 kts | 38° |
| 2026-04-25 08:01 | 48.67349 | -83.71653 | 31065 ft | 519 kts | 38° |
| 2026-04-25 08:01 | 48.73178 | -83.65190 | 31064 ft | 519 kts | 38° |
| 2026-04-25 08:02 | 48.79004 | -83.58709 | 31066 ft | 519 kts | 38° |
| 2026-04-25 08:02 | 48.84818 | -83.52222 | 31067 ft | 519 kts | 38° |
| 2026-04-25 08:03 | 48.90625 | -83.45723 | 31056 ft | 518 kts | 38° |
| 2026-04-25 08:03 | 48.96430 | -83.39199 | 31055 ft | 518 kts | 38° |
| 2026-04-25 08:04 | 49.02219 | -83.32677 | 31067 ft | 517 kts | 38° |
| 2026-04-25 08:04 | 49.08008 | -83.26151 | 31064 ft | 517 kts | 38° |
| 2026-04-25 08:05 | 49.13791 | -83.19603 | 31061 ft | 517 kts | 37° |
| 2026-04-25 08:05 | 49.19567 | -83.13045 | 31067 ft | 516 kts | 37° |
| 2026-04-25 08:06 | 49.25345 | -83.06466 | 31065 ft | 516 kts | 37° |
| 2026-04-25 08:06 | 49.31065 | -82.99932 | 31065 ft | 516 kts | 38° |
| 2026-04-25 08:07 | 49.36821 | -82.93331 | 31068 ft | 517 kts | 37° |
| 2026-04-25 08:07 | 49.42589 | -82.86705 | 31067 ft | 517 kts | 37° |
| 2026-04-25 08:08 | 49.48339 | -82.80064 | 31070 ft | 516 kts | 37° |
| 2026-04-25 08:08 | 49.54075 | -82.73432 | 31075 ft | 515 kts | 36° |
| 2026-04-25 08:09 | 49.59803 | -82.66796 | 31076 ft | 515 kts | 37° |
| 2026-04-25 08:09 | 49.65520 | -82.60150 | 31081 ft | 515 kts | 37° |
| 2026-04-25 08:10 | 49.71201 | -82.53524 | 31081 ft | 515 kts | 37° |
| 2026-04-25 08:10 | 49.76906 | -82.46842 | 31088 ft | 512 kts | 36° |
| 2026-04-25 08:11 | 49.82585 | -82.40177 | 31089 ft | 512 kts | 36° |
| 2026-04-25 08:11 | 49.88261 | -82.33496 | 31092 ft | 512 kts | 36° |
| 2026-04-25 08:12 | 49.93938 | -82.26793 | 31090 ft | 512 kts | 36° |
| 2026-04-25 08:12 | 49.99570 | -82.20101 | 31096 ft | 508 kts | 35° |
| 2026-04-25 08:13 | 50.05175 | -82.13450 | 31095 ft | 507 kts | 35° |
| 2026-04-25 08:14 | 50.13557 | -82.03466 | 31104 ft | 507 kts | 36° |
| 2026-04-25 08:14 | 50.19144 | -81.96771 | 31111 ft | 505 kts | 35° |
| 2026-04-25 08:15 | 50.24721 | -81.90078 | 31110 ft | 505 kts | 35° |
| 2026-04-25 08:15 | 50.30286 | -81.83379 | 31114 ft | 505 kts | 35° |
| 2026-04-25 08:16 | 50.35856 | -81.76651 | 31125 ft | 505 kts | 35° |
| 2026-04-25 08:16 | 50.41411 | -81.69917 | 31120 ft | 504 kts | 35° |
| 2026-04-25 08:17 | 50.46952 | -81.63182 | 31134 ft | 504 kts | 35° |
| 2026-04-25 08:17 | 50.52484 | -81.56426 | 31127 ft | 502 kts | 34° |
| 2026-04-25 08:18 | 50.58007 | -81.49678 | 31143 ft | 502 kts | 34° |
| 2026-04-25 08:18 | 50.63516 | -81.42916 | 31132 ft | 501 kts | 34° |
| 2026-04-25 08:19 | 50.68986 | -81.36195 | 31140 ft | 501 kts | 34° |
| 2026-04-25 08:19 | 50.74483 | -81.29414 | 31141 ft | 501 kts | 34° |
| 2026-04-25 08:20 | 50.79987 | -81.22601 | 31142 ft | 501 kts | 34° |
| 2026-04-25 08:20 | 50.85481 | -81.15780 | 31149 ft | 502 kts | 34° |
| 2026-04-25 08:21 | 50.90970 | -81.08941 | 31146 ft | 501 kts | 34° |
| 2026-04-25 08:21 | 50.96458 | -81.02083 | 31149 ft | 501 kts | 34° |
| 2026-04-25 08:22 | 51.01892 | -80.95262 | 31164 ft | 493 kts | 34° |
| 2026-04-25 08:22 | 51.07231 | -80.88551 | 31160 ft | 491 kts | 34° |
| 2026-04-25 08:23 | 51.12590 | -80.81796 | 31167 ft | 491 kts | 34° |
| 2026-04-25 08:23 | 51.17951 | -80.75012 | 31153 ft | 491 kts | 34° |
| 2026-04-25 08:24 | 51.23292 | -80.68234 | 31178 ft | 489 kts | 35° |
| 2026-04-25 08:24 | 51.28643 | -80.61521 | 31163 ft | 487 kts | 32° |
| 2026-04-25 08:25 | 51.34200 | -80.55498 | 31169 ft | 485 kts | 29° |
| 2026-04-25 08:25 | 51.39877 | -80.49627 | 31168 ft | 485 kts | 29° |
| 2026-04-25 08:26 | 51.45547 | -80.43760 | 31183 ft | 483 kts | 30° |
| 2026-04-25 08:26 | 51.51179 | -80.37871 | 31184 ft | 483 kts | 31° |
| 2026-04-25 08:27 | 51.56810 | -80.31957 | 31193 ft | 483 kts | 31° |
| 2026-04-25 08:27 | 51.62384 | -80.26104 | 31200 ft | 480 kts | 31° |
| 2026-04-25 08:28 | 51.68011 | -80.20177 | 31200 ft | 479 kts | 32° |
| 2026-04-25 08:28 | 51.73579 | -80.14279 | 31201 ft | 478 kts | 32° |
| 2026-04-25 08:29 | 51.79103 | -80.08411 | 31208 ft | 478 kts | 32° |
| 2026-04-25 08:29 | 51.84663 | -80.02492 | 31210 ft | 478 kts | 32° |
| 2026-04-25 08:30 | 51.90214 | -79.96578 | 31210 ft | 476 kts | 33° |
| 2026-04-25 08:30 | 51.95742 | -79.90656 | 31216 ft | 476 kts | 33° |
| 2026-04-25 08:31 | 52.01270 | -79.84717 | 31222 ft | 476 kts | 33° |
| 2026-04-25 08:31 | 52.06802 | -79.78758 | 31220 ft | 476 kts | 33° |
| 2026-04-25 08:32 | 52.12277 | -79.72850 | 31226 ft | 474 kts | 33° |
| 2026-04-25 08:32 | 52.17761 | -79.66906 | 31225 ft | 473 kts | 34° |
| 2026-04-25 08:33 | 52.23253 | -79.60936 | 31233 ft | 473 kts | 34° |
| 2026-04-25 08:33 | 52.28733 | -79.54962 | 31230 ft | 473 kts | 34° |
| 2026-04-25 08:34 | 52.34162 | -79.49033 | 31234 ft | 471 kts | 34° |
| 2026-04-25 08:34 | 52.39614 | -79.43053 | 31244 ft | 470 kts | 34° |
| 2026-04-25 08:35 | 52.45055 | -79.37066 | 31242 ft | 470 kts | 34° |
| 2026-04-25 08:35 | 52.50499 | -79.31060 | 31247 ft | 470 kts | 34° |
| 2026-04-25 08:36 | 52.55884 | -79.25107 | 31245 ft | 468 kts | 34° |
| 2026-04-25 08:36 | 52.61288 | -79.19109 | 31251 ft | 468 kts | 34° |
| 2026-04-25 08:37 | 52.66677 | -79.13107 | 31257 ft | 468 kts | 34° |
| 2026-04-25 08:37 | 52.72070 | -79.07085 | 31261 ft | 468 kts | 34° |
| 2026-04-25 08:38 | 52.77452 | -79.01061 | 31265 ft | 465 kts | 35° |
| 2026-04-25 08:38 | 52.82797 | -78.95056 | 31264 ft | 464 kts | 35° |
| 2026-04-25 08:39 | 52.88143 | -78.89030 | 31267 ft | 464 kts | 35° |
| 2026-04-25 08:39 | 52.93484 | -78.82992 | 31267 ft | 464 kts | 35° |
| 2026-04-25 08:40 | 52.98822 | -78.76941 | 31294 ft | 462 kts | 35° |
| 2026-04-25 08:40 | 53.04085 | -78.70957 | 31284 ft | 457 kts | 35° |
| 2026-04-25 08:41 | 53.09334 | -78.64970 | 31285 ft | 457 kts | 35° |
| 2026-04-25 08:41 | 53.14543 | -78.59012 | 31282 ft | 457 kts | 35° |
| 2026-04-25 08:42 | 53.19788 | -78.52996 | 31287 ft | 457 kts | 36° |
| 2026-04-25 08:42 | 53.25004 | -78.46999 | 31286 ft | 454 kts | 36° |
| 2026-04-25 08:43 | 53.30212 | -78.40983 | 31288 ft | 454 kts | 36° |
| 2026-04-25 08:43 | 53.35412 | -78.34960 | 31293 ft | 454 kts | 36° |
| 2026-04-25 08:44 | 53.40614 | -78.28918 | 31303 ft | 454 kts | 36° |
| 2026-04-25 08:44 | 53.45774 | -78.22917 | 31301 ft | 452 kts | 36° |
| 2026-04-25 08:45 | 53.50938 | -78.16880 | 31303 ft | 452 kts | 37° |
| 2026-04-25 08:45 | 53.56095 | -78.10832 | 31316 ft | 452 kts | 37° |
| 2026-04-25 08:46 | 53.60383 | -78.05793 | 31319 ft | 452 kts | 37° |
| 2026-04-25 08:46 | 53.65529 | -77.99729 | 31317 ft | 451 kts | 37° |
| 2026-04-25 08:47 | 53.71493 | -77.92687 | 31344 ft | 446 kts | 37° |
| 2026-04-25 08:47 | 53.75733 | -77.87657 | 31333 ft | 444 kts | 37° |
| 2026-04-25 08:48 | 53.80787 | -77.81643 | 31328 ft | 443 kts | 37° |
| 2026-04-25 08:48 | 53.85811 | -77.75648 | 31316 ft | 443 kts | 37° |
| 2026-04-25 08:49 | 53.90857 | -77.69616 | 31322 ft | 443 kts | 38° |
| 2026-04-25 08:49 | 53.95885 | -77.63580 | 31335 ft | 443 kts | 38° |
| 2026-04-25 08:50 | 54.00908 | -77.57533 | 31346 ft | 443 kts | 38° |
| 2026-04-25 08:50 | 54.05932 | -77.51466 | 31344 ft | 443 kts | 38° |
| 2026-04-25 08:51 | 54.10958 | -77.45382 | 31340 ft | 442 kts | 38° |
| 2026-04-25 08:51 | 54.15980 | -77.39284 | 31355 ft | 442 kts | 38° |
| 2026-04-25 08:52 | 54.20969 | -77.33205 | 31364 ft | 442 kts | 38° |
| 2026-04-25 08:52 | 54.25987 | -77.27073 | 31364 ft | 442 kts | 38° |
| 2026-04-25 08:53 | 54.30997 | -77.20931 | 31365 ft | 442 kts | 38° |
| 2026-04-25 08:53 | 54.36003 | -77.14779 | 31356 ft | 443 kts | 39° |
| 2026-04-25 08:54 | 54.40976 | -77.08646 | 31370 ft | 443 kts | 39° |
| 2026-04-25 08:54 | 54.45970 | -77.02473 | 31381 ft | 440 kts | 39° |
| 2026-04-25 08:55 | 54.50922 | -76.96327 | 31380 ft | 439 kts | 39° |
| 2026-04-25 08:55 | 54.55884 | -76.90149 | 31366 ft | 439 kts | 39° |
| 2026-04-25 08:56 | 54.60840 | -76.83959 | 31378 ft | 440 kts | 39° |
| 2026-04-25 08:56 | 54.65805 | -76.77742 | 31388 ft | 440 kts | 39° |
| 2026-04-25 08:57 | 54.70771 | -76.71506 | 31389 ft | 440 kts | 39° |
| 2026-04-25 08:57 | 54.75689 | -76.65310 | 31397 ft | 440 kts | 39° |
| 2026-04-25 08:58 | 54.80680 | -76.59001 | 31385 ft | 441 kts | 39° |
| 2026-04-25 08:58 | 54.85607 | -76.52754 | 31404 ft | 442 kts | 39° |
| 2026-04-25 08:59 | 54.90574 | -76.46438 | 31402 ft | 442 kts | 39° |
| 2026-04-25 08:59 | 54.95529 | -76.40116 | 31406 ft | 441 kts | 39° |
| 2026-04-25 09:00 | 55.00473 | -76.33790 | 31412 ft | 441 kts | 39° |
| 2026-04-25 09:00 | 55.05428 | -76.27428 | 31414 ft | 441 kts | 39° |
| 2026-04-25 09:01 | 55.10374 | -76.21059 | 31420 ft | 441 kts | 39° |
| 2026-04-25 09:01 | 55.15323 | -76.14667 | 31447 ft | 442 kts | 39° |
| 2026-04-25 09:02 | 55.20253 | -76.08280 | 31434 ft | 440 kts | 39° |
| 2026-04-25 09:02 | 55.25171 | -76.01885 | 31429 ft | 440 kts | 39° |
| 2026-04-25 09:03 | 55.30080 | -75.95483 | 31442 ft | 440 kts | 40° |
| 2026-04-25 09:03 | 55.34961 | -75.89097 | 31440 ft | 440 kts | 40° |
| 2026-04-25 09:04 | 55.39867 | -75.82657 | 31437 ft | 440 kts | 40° |
| 2026-04-25 09:04 | 55.44772 | -75.76199 | 31436 ft | 440 kts | 40° |
| 2026-04-25 09:05 | 55.49743 | -75.69631 | 31438 ft | 440 kts | 40° |
| 2026-04-25 09:05 | 55.54648 | -75.63132 | 31445 ft | 440 kts | 40° |
| 2026-04-25 09:06 | 55.59551 | -75.56616 | 31457 ft | 440 kts | 40° |
| 2026-04-25 09:06 | 55.64441 | -75.50095 | 31454 ft | 440 kts | 40° |
| 2026-04-25 09:07 | 55.69295 | -75.43600 | 31453 ft | 440 kts | 40° |
| 2026-04-25 09:07 | 55.74176 | -75.37048 | 31451 ft | 440 kts | 40° |
| 2026-04-25 09:08 | 55.79062 | -75.30467 | 31466 ft | 439 kts | 40° |
| 2026-04-25 09:08 | 55.83933 | -75.23886 | 31454 ft | 439 kts | 40° |
| 2026-04-25 09:09 | 55.88808 | -75.17276 | 31473 ft | 439 kts | 40° |
| 2026-04-25 09:09 | 55.93629 | -75.10716 | 31468 ft | 438 kts | 40° |
| 2026-04-25 09:10 | 55.98495 | -75.04139 | 31476 ft | 437 kts | 38° |
| 2026-04-25 09:10 | 56.03594 | -74.98210 | 31480 ft | 439 kts | 34° |
| 2026-04-25 09:11 | 56.11703 | -74.90411 | 31482 ft | 441 kts | 31° |
| 2026-04-25 09:11 | 56.17142 | -74.85302 | 31478 ft | 441 kts | 31° |
| 2026-04-25 09:12 | 56.22567 | -74.80190 | 31481 ft | 439 kts | 31° |
| 2026-04-25 09:12 | 56.27938 | -74.75104 | 31489 ft | 438 kts | 32° |
| 2026-04-25 09:13 | 56.33369 | -74.69943 | 32007 ft | 440 kts | 32° |
| 2026-04-25 09:13 | 56.36063 | -74.67382 | 32579 ft | 435 kts | 32° |
| 2026-04-25 09:13 | 56.38719 | -74.64853 | 33133 ft | 430 kts | 32° |
| 2026-04-25 09:14 | 56.41360 | -74.62331 | 33473 ft | 428 kts | 32° |
| 2026-04-25 09:14 | 56.43989 | -74.59814 | 33483 ft | 425 kts | 32° |
| 2026-04-25 09:14 | 56.49203 | -74.54807 | 33504 ft | 424 kts | 32° |
| 2026-04-25 09:15 | 56.54408 | -74.49794 | 33512 ft | 424 kts | 32° |
| 2026-04-25 09:15 | 56.59586 | -74.44794 | 33512 ft | 424 kts | 32° |
| 2026-04-25 09:16 | 56.64789 | -74.39753 | 33518 ft | 424 kts | 32° |
| 2026-04-25 09:16 | 56.69992 | -74.34694 | 33506 ft | 423 kts | 32° |
| 2026-04-25 09:17 | 56.77766 | -74.27113 | 33519 ft | 422 kts | 32° |
| 2026-04-25 09:18 | 56.82945 | -74.22043 | 33526 ft | 422 kts | 32° |
| 2026-04-25 09:18 | 56.88129 | -74.16951 | 33528 ft | 422 kts | 32° |
| 2026-04-25 09:19 | 56.93305 | -74.11848 | 33518 ft | 422 kts | 32° |
| 2026-04-25 09:19 | 56.98479 | -74.06730 | 33539 ft | 422 kts | 32° |
| 2026-04-25 09:20 | 57.03649 | -74.01606 | 33536 ft | 423 kts | 32° |
| 2026-04-25 09:20 | 57.08784 | -73.96498 | 33543 ft | 423 kts | 32° |
| 2026-04-25 09:21 | 57.13955 | -73.91337 | 33555 ft | 423 kts | 32° |
| 2026-04-25 09:21 | 57.19129 | -73.86150 | 33541 ft | 424 kts | 32° |
| 2026-04-25 09:22 | 57.24326 | -73.80931 | 33559 ft | 425 kts | 32° |
| 2026-04-25 09:22 | 57.29526 | -73.75694 | 33556 ft | 425 kts | 32° |
| 2026-04-25 09:23 | 57.34721 | -73.70443 | 33561 ft | 425 kts | 32° |
| 2026-04-25 09:23 | 57.39881 | -73.65209 | 33587 ft | 425 kts | 32° |
| 2026-04-25 09:24 | 57.45055 | -73.59939 | 33568 ft | 424 kts | 32° |
| 2026-04-25 09:24 | 57.50228 | -73.54659 | 33569 ft | 424 kts | 32° |
| 2026-04-25 09:25 | 57.55409 | -73.49355 | 33574 ft | 424 kts | 32° |
| 2026-04-25 09:25 | 57.60580 | -73.44042 | 33577 ft | 424 kts | 32° |
| 2026-04-25 09:26 | 57.65719 | -73.38744 | 33581 ft | 424 kts | 32° |
| 2026-04-25 09:26 | 57.70887 | -73.33398 | 33580 ft | 424 kts | 32° |
| 2026-04-25 09:27 | 57.76051 | -73.28039 | 33594 ft | 424 kts | 32° |
| 2026-04-25 09:27 | 57.81219 | -73.22658 | 33591 ft | 424 kts | 32° |
| 2026-04-25 09:28 | 57.86379 | -73.17268 | 33586 ft | 424 kts | 32° |
| 2026-04-25 09:28 | 57.91543 | -73.11853 | 33572 ft | 425 kts | 32° |
| 2026-04-25 09:29 | 57.96687 | -73.06438 | 33591 ft | 427 kts | 32° |
| 2026-04-25 09:29 | 58.01870 | -73.00973 | 33603 ft | 427 kts | 32° |
| 2026-04-25 09:30 | 58.07049 | -72.95492 | 33600 ft | 427 kts | 32° |
| 2026-04-25 09:30 | 58.12225 | -72.89995 | 33606 ft | 427 kts | 32° |
| 2026-04-25 09:31 | 58.17403 | -72.84475 | 33594 ft | 427 kts | 32° |
| 2026-04-25 09:31 | 58.22601 | -72.78910 | 33609 ft | 429 kts | 31° |
| 2026-04-25 09:32 | 58.27766 | -72.73372 | 33613 ft | 429 kts | 31° |
| 2026-04-25 09:32 | 58.32958 | -72.67783 | 33617 ft | 429 kts | 32° |
| 2026-04-25 09:33 | 58.38152 | -72.62173 | 33615 ft | 429 kts | 32° |
| 2026-04-25 09:33 | 58.43352 | -72.56529 | 33607 ft | 430 kts | 31° |
| 2026-04-25 09:34 | 58.47725 | -72.51769 | 33621 ft | 432 kts | 31° |
| 2026-04-25 09:34 | 58.52927 | -72.46100 | 33629 ft | 433 kts | 31° |
| 2026-04-25 09:35 | 58.58153 | -72.40382 | 33622 ft | 433 kts | 31° |
| 2026-04-25 09:35 | 58.63385 | -72.34637 | 33625 ft | 433 kts | 31° |
| 2026-04-25 09:36 | 58.68609 | -72.28873 | 33615 ft | 434 kts | 31° |
| 2026-04-25 09:36 | 58.73860 | -72.23062 | 33627 ft | 435 kts | 31° |
| 2026-04-25 09:37 | 58.79117 | -72.17230 | 33629 ft | 435 kts | 31° |
| 2026-04-25 09:37 | 58.84366 | -72.11384 | 33642 ft | 436 kts | 31° |
| 2026-04-25 09:38 | 58.89614 | -72.05519 | 33635 ft | 435 kts | 31° |
| 2026-04-25 09:38 | 58.94852 | -71.99636 | 33634 ft | 437 kts | 31° |
| 2026-04-25 09:39 | 59.00115 | -71.93710 | 33637 ft | 438 kts | 31° |
| 2026-04-25 09:39 | 59.05388 | -71.87755 | 33646 ft | 438 kts | 31° |
| 2026-04-25 09:40 | 59.13249 | -71.78837 | 33657 ft | 436 kts | 31° |
| 2026-04-25 09:40 | 59.18476 | -71.72875 | 33642 ft | 436 kts | 31° |
| 2026-04-25 09:41 | 59.23725 | -71.66861 | 33655 ft | 438 kts | 31° |
| 2026-04-25 09:41 | 59.28996 | -71.60811 | 33657 ft | 438 kts | 31° |
| 2026-04-25 09:42 | 59.34257 | -71.54751 | 33657 ft | 438 kts | 31° |
| 2026-04-25 09:42 | 59.39518 | -71.48665 | 33664 ft | 438 kts | 31° |
| 2026-04-25 09:43 | 59.44731 | -71.42609 | 33653 ft | 439 kts | 31° |
| 2026-04-25 09:43 | 59.50006 | -71.36461 | 33662 ft | 441 kts | 30° |
| 2026-04-25 09:44 | 59.55291 | -71.30284 | 33665 ft | 441 kts | 31° |
| 2026-04-25 09:44 | 59.60563 | -71.24096 | 33667 ft | 441 kts | 31° |
| 2026-04-25 09:45 | 59.65836 | -71.17884 | 33668 ft | 441 kts | 31° |
| 2026-04-25 09:45 | 59.71117 | -71.11633 | 33663 ft | 443 kts | 30° |
| 2026-04-25 09:46 | 59.76376 | -71.05392 | 33670 ft | 444 kts | 30° |
| 2026-04-25 09:46 | 59.81667 | -70.99092 | 33669 ft | 444 kts | 30° |
| 2026-04-25 09:47 | 59.86960 | -70.92764 | 33666 ft | 444 kts | 30° |
| 2026-04-25 09:47 | 59.92253 | -70.86411 | 33671 ft | 444 kts | 30° |
| 2026-04-25 09:48 | 59.97541 | -70.80032 | 33675 ft | 445 kts | 30° |
| 2026-04-25 09:48 | 60.02838 | -70.73628 | 33680 ft | 445 kts | 30° |
| 2026-04-25 09:49 | 60.08144 | -70.67189 | 33674 ft | 445 kts | 30° |
| 2026-04-25 09:49 | 60.13444 | -70.60731 | 33679 ft | 445 kts | 30° |
| 2026-04-25 09:50 | 60.18705 | -70.54296 | 33699 ft | 445 kts | 30° |
| 2026-04-25 09:50 | 60.23998 | -70.47797 | 33684 ft | 445 kts | 30° |
| 2026-04-25 09:51 | 60.29291 | -70.41272 | 33690 ft | 445 kts | 31° |
| 2026-04-25 09:51 | 60.34577 | -70.34731 | 33684 ft | 445 kts | 31° |
| 2026-04-25 09:52 | 60.39861 | -70.28167 | 33687 ft | 445 kts | 31° |
| 2026-04-25 09:52 | 60.45139 | -70.21583 | 33688 ft | 446 kts | 31° |
| 2026-04-25 09:53 | 60.50431 | -70.14949 | 33688 ft | 448 kts | 30° |
| 2026-04-25 09:53 | 60.55736 | -70.08287 | 33683 ft | 448 kts | 30° |
| 2026-04-25 09:54 | 60.61042 | -70.01596 | 33689 ft | 448 kts | 30° |
| 2026-04-25 09:54 | 60.66299 | -69.94939 | 33690 ft | 448 kts | 30° |
| 2026-04-25 09:55 | 60.71588 | -69.88214 | 33696 ft | 448 kts | 30° |
| 2026-04-25 09:55 | 60.76895 | -69.81432 | 33703 ft | 450 kts | 30° |
| 2026-04-25 09:56 | 60.82213 | -69.74620 | 33696 ft | 450 kts | 30° |
| 2026-04-25 09:56 | 60.87480 | -69.67845 | 33707 ft | 448 kts | 30° |
| 2026-04-25 09:57 | 60.92769 | -69.61012 | 33716 ft | 448 kts | 30° |
| 2026-04-25 09:57 | 60.98053 | -69.54158 | 33708 ft | 448 kts | 30° |
| 2026-04-25 09:58 | 61.03339 | -69.47270 | 33709 ft | 450 kts | 30° |
| 2026-04-25 09:58 | 61.08642 | -69.40340 | 33710 ft | 450 kts | 30° |
| 2026-04-25 09:59 | 61.13935 | -69.33394 | 33716 ft | 450 kts | 30° |
| 2026-04-25 09:59 | 61.19203 | -69.26453 | 33698 ft | 450 kts | 30° |
| 2026-04-25 10:00 | 61.24487 | -69.19456 | 33713 ft | 451 kts | 30° |
| 2026-04-25 10:00 | 61.29791 | -69.12403 | 33699 ft | 452 kts | 30° |
| 2026-04-25 10:01 | 61.35098 | -69.05329 | 33699 ft | 453 kts | 30° |
| 2026-04-25 10:01 | 61.40390 | -68.98243 | 33696 ft | 453 kts | 30° |
| 2026-04-25 10:02 | 61.45692 | -68.91112 | 33702 ft | 453 kts | 30° |
| 2026-04-25 10:02 | 61.50981 | -68.83964 | 33703 ft | 453 kts | 30° |
| 2026-04-25 10:03 | 61.56286 | -68.76767 | 33697 ft | 454 kts | 30° |
| 2026-04-25 10:03 | 61.61558 | -68.69593 | 33694 ft | 454 kts | 30° |
| 2026-04-25 10:04 | 61.66859 | -68.62346 | 33696 ft | 454 kts | 30° |
| 2026-04-25 10:04 | 61.72158 | -68.55071 | 33693 ft | 454 kts | 30° |
| 2026-04-25 10:05 | 61.77457 | -68.47754 | 33698 ft | 455 kts | 29° |
| 2026-04-25 10:05 | 61.82767 | -68.40403 | 33693 ft | 456 kts | 29° |
| 2026-04-25 10:06 | 61.88068 | -68.33038 | 33693 ft | 456 kts | 30° |
| 2026-04-25 10:06 | 61.93385 | -68.25617 | 33684 ft | 456 kts | 30° |
| 2026-04-25 10:07 | 61.98685 | -68.18185 | 33684 ft | 456 kts | 30° |
| 2026-04-25 10:07 | 62.03935 | -68.10781 | 33696 ft | 458 kts | 29° |
| 2026-04-25 10:08 | 62.09261 | -68.03264 | 33685 ft | 458 kts | 29° |
| 2026-04-25 10:08 | 62.14573 | -67.95731 | 33688 ft | 458 kts | 29° |
| 2026-04-25 10:09 | 62.19881 | -67.88164 | 33688 ft | 459 kts | 29° |
| 2026-04-25 10:09 | 62.25198 | -67.80547 | 33693 ft | 459 kts | 29° |
| 2026-04-25 10:10 | 62.30478 | -67.72939 | 33699 ft | 460 kts | 28° |
| 2026-04-25 10:10 | 62.35806 | -67.65246 | 33696 ft | 461 kts | 29° |
| 2026-04-25 10:11 | 62.41133 | -67.57520 | 33686 ft | 461 kts | 29° |
| 2026-04-25 10:11 | 62.46455 | -67.49762 | 33718 ft | 461 kts | 29° |
| 2026-04-25 10:12 | 62.51772 | -67.41977 | 33693 ft | 461 kts | 29° |
| 2026-04-25 10:13 | 62.59759 | -67.30207 | 33711 ft | 463 kts | 28° |
| 2026-04-25 10:13 | 62.65054 | -67.22373 | 33706 ft | 462 kts | 29° |
| 2026-04-25 10:14 | 62.70364 | -67.14466 | 33709 ft | 462 kts | 29° |
| 2026-04-25 10:14 | 62.75602 | -67.06300 | 33707 ft | 465 kts | 33° |
| 2026-04-25 10:15 | 62.80512 | -66.96984 | 33708 ft | 469 kts | 38° |
| 2026-04-25 10:15 | 62.84994 | -66.86502 | 33707 ft | 474 kts | 44° |
| 2026-04-25 10:16 | 62.89146 | -66.75337 | 33708 ft | 475 kts | 45° |
| 2026-04-25 10:16 | 62.93272 | -66.64014 | 33711 ft | 475 kts | 45° |
| 2026-04-25 10:17 | 62.97397 | -66.52664 | 33709 ft | 475 kts | 46° |
| 2026-04-25 10:17 | 63.01516 | -66.41289 | 33740 ft | 475 kts | 45° |
| 2026-04-25 10:18 | 63.05652 | -66.29809 | 33716 ft | 479 kts | 45° |
| 2026-04-25 10:18 | 63.09794 | -66.18277 | 33706 ft | 479 kts | 45° |
| 2026-04-25 10:19 | 63.13905 | -66.06769 | 33694 ft | 479 kts | 45° |
| 2026-04-25 10:19 | 63.18027 | -65.95168 | 33695 ft | 479 kts | 45° |
| 2026-04-25 10:20 | 63.22139 | -65.83533 | 33694 ft | 479 kts | 46° |
| 2026-04-25 10:20 | 63.26258 | -65.71806 | 33706 ft | 481 kts | 45° |
| 2026-04-25 10:21 | 63.30375 | -65.60042 | 33699 ft | 482 kts | 45° |
| 2026-04-25 10:21 | 63.34491 | -65.48217 | 33694 ft | 483 kts | 45° |
| 2026-04-25 10:22 | 63.38603 | -65.36340 | 33694 ft | 483 kts | 45° |
| 2026-04-25 10:22 | 63.42011 | -65.26450 | 33698 ft | 483 kts | 46° |
| 2026-04-25 10:23 | 63.46762 | -65.12575 | 33720 ft | 484 kts | 45° |
| 2026-04-25 10:23 | 63.50203 | -65.02476 | 33701 ft | 487 kts | 45° |
| 2026-04-25 10:24 | 63.54281 | -64.90462 | 33691 ft | 487 kts | 45° |
| 2026-04-25 10:24 | 63.58378 | -64.78326 | 33691 ft | 487 kts | 45° |
| 2026-04-25 10:25 | 63.62471 | -64.66128 | 33695 ft | 488 kts | 46° |
| 2026-04-25 10:25 | 63.66550 | -64.53905 | 33694 ft | 487 kts | 46° |
| 2026-04-25 10:26 | 63.70625 | -64.41611 | 33684 ft | 491 kts | 45° |
| 2026-04-25 10:26 | 63.74707 | -64.29270 | 33690 ft | 489 kts | 46° |
| 2026-04-25 10:27 | 63.78767 | -64.16904 | 33691 ft | 489 kts | 46° |
| 2026-04-25 10:27 | 63.82818 | -64.04497 | 33691 ft | 489 kts | 46° |
| 2026-04-25 10:28 | 63.86835 | -63.92127 | 33692 ft | 489 kts | 46° |
| 2026-04-25 10:28 | 63.90866 | -63.79624 | 33716 ft | 491 kts | 45° |
| 2026-04-25 10:29 | 63.94916 | -63.67031 | 33694 ft | 493 kts | 45° |
| 2026-04-25 10:29 | 63.98963 | -63.54380 | 33690 ft | 493 kts | 45° |
| 2026-04-25 10:30 | 64.02991 | -63.41704 | 33689 ft | 494 kts | 45° |
| 2026-04-25 10:30 | 64.07011 | -63.28976 | 33683 ft | 494 kts | 46° |
| 2026-04-25 10:31 | 64.11002 | -63.16264 | 33735 ft | 494 kts | 45° |
| 2026-04-25 10:31 | 64.15023 | -63.03379 | 33675 ft | 497 kts | 45° |
| 2026-04-25 10:32 | 64.19041 | -62.90465 | 33678 ft | 496 kts | 46° |
| 2026-04-25 10:32 | 64.23039 | -62.77495 | 33673 ft | 496 kts | 47° |
| 2026-04-25 10:33 | 64.27017 | -62.64507 | 33676 ft | 496 kts | 47° |
| 2026-04-25 10:33 | 64.30987 | -62.51485 | 33657 ft | 496 kts | 47° |
| 2026-04-25 10:34 | 64.34961 | -62.38387 | 33676 ft | 499 kts | 47° |
| 2026-04-25 10:34 | 64.38916 | -62.25275 | 33664 ft | 500 kts | 47° |
| 2026-04-25 10:35 | 64.42885 | -62.12033 | 33664 ft | 500 kts | 47° |
| 2026-04-25 10:35 | 64.46839 | -61.98765 | 33664 ft | 500 kts | 47° |
| 2026-04-25 10:36 | 64.50814 | -61.85352 | 33663 ft | 501 kts | 47° |
| 2026-04-25 10:36 | 64.54760 | -61.71958 | 33673 ft | 503 kts | 47° |
| 2026-04-25 10:37 | 64.58705 | -61.58485 | 33663 ft | 504 kts | 48° |
| 2026-04-25 10:37 | 64.62623 | -61.45018 | 33656 ft | 504 kts | 48° |
| 2026-04-25 10:38 | 64.66567 | -61.31413 | 33654 ft | 504 kts | 49° |
| 2026-04-25 10:38 | 64.70479 | -61.17786 | 33659 ft | 504 kts | 49° |
| 2026-04-25 10:39 | 64.74388 | -61.04094 | 33692 ft | 506 kts | 49° |
| 2026-04-25 10:39 | 64.78302 | -60.90315 | 33655 ft | 509 kts | 49° |
| 2026-04-25 10:40 | 64.82219 | -60.76435 | 33645 ft | 509 kts | 49° |
| 2026-04-25 10:40 | 64.86092 | -60.62620 | 33648 ft | 509 kts | 50° |
| 2026-04-25 10:41 | 64.89986 | -60.48647 | 33643 ft | 509 kts | 50° |
| 2026-04-25 10:41 | 64.93867 | -60.34628 | 33647 ft | 510 kts | 50° |
| 2026-04-25 10:42 | 64.97728 | -60.20592 | 33643 ft | 510 kts | 50° |
| 2026-04-25 10:42 | 65.01597 | -60.06425 | 34157 ft | 512 kts | 50° |
| 2026-04-25 10:42 | 65.03491 | -59.99355 | 34721 ft | 509 kts | 51° |
| 2026-04-25 10:43 | 65.05309 | -59.92167 | 35185 ft | 506 kts | 52° |
| 2026-04-25 10:43 | 65.07091 | -59.84959 | 35473 ft | 506 kts | 53° |
| 2026-04-25 10:43 | 65.08871 | -59.77708 | 35633 ft | 508 kts | 53° |
| 2026-04-25 10:44 | 65.12404 | -59.63156 | 35670 ft | 509 kts | 54° |
| 2026-04-25 10:44 | 65.15927 | -59.48565 | 35637 ft | 512 kts | 54° |
| 2026-04-25 10:45 | 65.19466 | -59.33825 | 35624 ft | 513 kts | 54° |
| 2026-04-25 10:45 | 65.23008 | -59.18988 | 35617 ft | 513 kts | 54° |
| 2026-04-25 10:46 | 65.26531 | -59.04132 | 35614 ft | 513 kts | 54° |
| 2026-04-25 10:46 | 65.30030 | -58.89278 | 35611 ft | 513 kts | 54° |
| 2026-04-25 10:47 | 65.33501 | -58.74455 | 35634 ft | 515 kts | 55° |
| 2026-04-25 10:47 | 65.36995 | -58.59416 | 35601 ft | 516 kts | 55° |
| 2026-04-25 10:48 | 65.40477 | -58.44321 | 35599 ft | 516 kts | 55° |
| 2026-04-25 10:48 | 65.43951 | -58.29165 | 35575 ft | 517 kts | 56° |
| 2026-04-25 10:49 | 65.47412 | -58.13964 | 35589 ft | 517 kts | 56° |
| 2026-04-25 10:49 | 65.50853 | -57.98727 | 35611 ft | 519 kts | 56° |
| 2026-04-25 10:50 | 65.54301 | -57.83361 | 35592 ft | 520 kts | 57° |
| 2026-04-25 10:50 | 65.57735 | -57.67930 | 35575 ft | 521 kts | 57° |
| 2026-04-25 10:51 | 65.61160 | -57.52434 | 35577 ft | 521 kts | 57° |
| 2026-04-25 10:51 | 65.64541 | -57.37028 | 35572 ft | 521 kts | 57° |
| 2026-04-25 10:52 | 65.67932 | -57.21468 | 35631 ft | 521 kts | 57° |
| 2026-04-25 10:52 | 65.71322 | -57.05827 | 35581 ft | 524 kts | 58° |
| 2026-04-25 10:53 | 65.74704 | -56.90064 | 35555 ft | 525 kts | 58° |
| 2026-04-25 10:53 | 65.78073 | -56.74254 | 35512 ft | 525 kts | 58° |
| 2026-04-25 10:54 | 65.81426 | -56.58424 | 35545 ft | 525 kts | 59° |
| 2026-04-25 10:54 | 65.84758 | -56.42545 | 35550 ft | 525 kts | 59° |
| 2026-04-25 10:55 | 65.88061 | -56.26705 | 35542 ft | 527 kts | 59° |
| 2026-04-25 10:55 | 65.91378 | -56.10661 | 35536 ft | 528 kts | 59° |
| 2026-04-25 10:56 | 65.94678 | -55.94576 | 35530 ft | 528 kts | 59° |
| 2026-04-25 10:56 | 65.97961 | -55.78456 | 35527 ft | 528 kts | 60° |
| 2026-04-25 10:57 | 66.01226 | -55.62304 | 35506 ft | 528 kts | 60° |
| 2026-04-25 10:57 | 66.04487 | -55.46060 | 35538 ft | 531 kts | 60° |
| 2026-04-25 10:58 | 66.07747 | -55.29678 | 35506 ft | 532 kts | 60° |
| 2026-04-25 10:58 | 66.10991 | -55.13237 | 35501 ft | 533 kts | 61° |
| 2026-04-25 10:59 | 66.14226 | -54.96731 | 35461 ft | 531 kts | 61° |
| 2026-04-25 10:59 | 66.17432 | -54.80224 | 35475 ft | 531 kts | 62° |
| 2026-04-25 11:00 | 66.20598 | -54.63799 | 35505 ft | 533 kts | 62° |
| 2026-04-25 11:00 | 66.23784 | -54.47140 | 35481 ft | 534 kts | 62° |
| 2026-04-25 11:01 | 66.26955 | -54.30409 | 35450 ft | 535 kts | 62° |
| 2026-04-25 11:01 | 66.30108 | -54.13641 | 35447 ft | 535 kts | 62° |
| 2026-04-25 11:02 | 66.32718 | -53.99659 | 35447 ft | 535 kts | 63° |
| 2026-04-25 11:02 | 66.36347 | -53.80058 | 35505 ft | 535 kts | 63° |
| 2026-04-25 11:03 | 66.39459 | -53.63111 | 35438 ft | 538 kts | 63° |
| 2026-04-25 11:03 | 66.42559 | -53.46061 | 35430 ft | 538 kts | 63° |
| 2026-04-25 11:04 | 66.45640 | -53.28997 | 35433 ft | 537 kts | 64° |
| 2026-04-25 11:04 | 66.48697 | -53.11902 | 35445 ft | 537 kts | 64° |
| 2026-04-25 11:05 | 66.51725 | -52.94812 | 35442 ft | 537 kts | 64° |
| 2026-04-25 11:05 | 66.54733 | -52.77713 | 35466 ft | 539 kts | 64° |
| 2026-04-25 11:06 | 66.57742 | -52.60440 | 35463 ft | 539 kts | 65° |
| 2026-04-25 11:06 | 66.60040 | -52.47147 | 35456 ft | 539 kts | 65° |
| 2026-04-25 11:07 | 66.63019 | -52.29789 | 35472 ft | 539 kts | 65° |
| 2026-04-25 11:07 | 66.65979 | -52.12382 | 35465 ft | 539 kts | 65° |
| 2026-04-25 11:08 | 66.68918 | -51.94949 | 35469 ft | 539 kts | 65° |
| 2026-04-25 11:08 | 66.71836 | -51.77481 | 35483 ft | 539 kts | 65° |
| 2026-04-25 11:09 | 66.74250 | -51.62911 | 35446 ft | 539 kts | 66° |
| 2026-04-25 11:09 | 66.77129 | -51.45405 | 35461 ft | 536 kts | 66° |
| 2026-04-25 11:10 | 66.79979 | -51.27888 | 35471 ft | 536 kts | 66° |
| 2026-04-25 11:10 | 66.82810 | -51.10344 | 35513 ft | 537 kts | 67° |
| 2026-04-25 11:11 | 66.85631 | -50.92706 | 35479 ft | 539 kts | 67° |
| 2026-04-25 11:11 | 66.88415 | -50.75110 | 35478 ft | 539 kts | 67° |
| 2026-04-25 11:12 | 66.91199 | -50.57356 | 35483 ft | 539 kts | 67° |
| 2026-04-25 11:12 | 66.93959 | -50.39577 | 35485 ft | 539 kts | 68° |
| 2026-04-25 11:13 | 66.96707 | -50.21689 | 35473 ft | 539 kts | 68° |
| 2026-04-25 11:13 | 66.99432 | -50.03779 | 35487 ft | 541 kts | 68° |
| 2026-04-25 11:14 | 67.01994 | -49.85906 | 35485 ft | 541 kts | 70° |
| 2026-04-25 11:14 | 67.04427 | -49.67632 | 35478 ft | 541 kts | 71° |
| 2026-04-25 11:15 | 67.06839 | -49.49333 | 35463 ft | 541 kts | 71° |
| 2026-04-25 11:15 | 67.09248 | -49.30979 | 35460 ft | 541 kts | 71° |
| 2026-04-25 11:16 | 67.12833 | -49.03388 | 35457 ft | 543 kts | 71° |
| 2026-04-25 11:16 | 67.15198 | -48.84921 | 35442 ft | 543 kts | 72° |
| 2026-04-25 11:17 | 67.17547 | -48.66380 | 35413 ft | 543 kts | 72° |
| 2026-04-25 11:17 | 67.19859 | -48.47933 | 35411 ft | 543 kts | 72° |
| 2026-04-25 11:18 | 67.22164 | -48.29338 | 35402 ft | 543 kts | 72° |
| 2026-04-25 11:18 | 67.24449 | -48.10700 | 35336 ft | 544 kts | 73° |
| 2026-04-25 11:19 | 67.26707 | -47.92089 | 35372 ft | 542 kts | 73° |
| 2026-04-25 11:19 | 67.28940 | -47.73421 | 35377 ft | 542 kts | 73° |
| 2026-04-25 11:20 | 67.31136 | -47.54866 | 35378 ft | 542 kts | 73° |
| 2026-04-25 11:20 | 67.33329 | -47.36119 | 35366 ft | 542 kts | 74° |
| 2026-04-25 11:21 | 67.35499 | -47.17360 | 35376 ft | 542 kts | 74° |
| 2026-04-25 11:21 | 67.37647 | -46.98562 | 35371 ft | 543 kts | 74° |
| 2026-04-25 11:22 | 67.39417 | -46.82894 | 35370 ft | 543 kts | 74° |
| 2026-04-25 11:22 | 67.41869 | -46.60934 | 35345 ft | 543 kts | 75° |
| 2026-04-25 11:23 | 67.43981 | -46.41767 | 35357 ft | 543 kts | 75° |
| 2026-04-25 11:23 | 67.46056 | -46.22730 | 35351 ft | 540 kts | 75° |
| 2026-04-25 11:24 | 67.48085 | -46.03844 | 35349 ft | 540 kts | 76° |
| 2026-04-25 11:24 | 67.50086 | -45.84952 | 35335 ft | 540 kts | 76° |
| 2026-04-25 11:25 | 67.52079 | -45.65917 | 35333 ft | 540 kts | 76° |
| 2026-04-25 11:25 | 67.54025 | -45.47092 | 35332 ft | 540 kts | 76° |
| 2026-04-25 11:26 | 67.55970 | -45.28022 | 35332 ft | 540 kts | 76° |
| 2026-04-25 11:26 | 67.57887 | -45.08970 | 35317 ft | 540 kts | 77° |
| 2026-04-25 11:27 | 67.59782 | -44.89878 | 35316 ft | 540 kts | 77° |
| 2026-04-25 11:27 | 67.61342 | -44.73978 | 35314 ft | 540 kts | 77° |
| 2026-04-25 11:28 | 67.63508 | -44.51598 | 35232 ft | 540 kts | 77° |
| 2026-04-25 11:28 | 67.65318 | -44.32644 | 35278 ft | 536 kts | 78° |
| 2026-04-25 11:29 | 67.67111 | -44.13586 | 35311 ft | 536 kts | 78° |
| 2026-04-25 11:29 | 67.68882 | -43.94490 | 35297 ft | 537 kts | 78° |
| 2026-04-25 11:30 | 67.70632 | -43.75352 | 35277 ft | 537 kts | 78° |
| 2026-04-25 11:30 | 67.72360 | -43.56181 | 35272 ft | 537 kts | 79° |
| 2026-04-25 11:31 | 67.74066 | -43.36974 | 35268 ft | 537 kts | 79° |
| 2026-04-25 11:31 | 67.75752 | -43.17723 | 35286 ft | 537 kts | 79° |
| 2026-04-25 11:32 | 67.77422 | -42.98367 | 35256 ft | 537 kts | 79° |
| 2026-04-25 11:32 | 67.79062 | -42.79053 | 35248 ft | 537 kts | 79° |
| 2026-04-25 11:33 | 67.80664 | -42.59880 | 35212 ft | 535 kts | 79° |
| 2026-04-25 11:33 | 67.82246 | -42.40668 | 35233 ft | 533 kts | 79° |
| 2026-04-25 11:34 | 67.83803 | -42.21470 | 35222 ft | 532 kts | 80° |
| 2026-04-25 11:34 | 67.85336 | -42.02267 | 35226 ft | 532 kts | 80° |
| 2026-04-25 11:35 | 67.86848 | -41.83012 | 35225 ft | 532 kts | 80° |
| 2026-04-25 11:35 | 67.88335 | -41.63759 | 35223 ft | 532 kts | 81° |
| 2026-04-25 11:36 | 67.89801 | -41.44461 | 35197 ft | 532 kts | 81° |
| 2026-04-25 11:36 | 67.91244 | -41.25139 | 35195 ft | 532 kts | 81° |
| 2026-04-25 11:37 | 67.92664 | -41.05773 | 35213 ft | 533 kts | 81° |
| 2026-04-25 11:37 | 67.94062 | -40.86391 | 35206 ft | 533 kts | 81° |
| 2026-04-25 11:38 | 67.95428 | -40.67006 | 35162 ft | 530 kts | 81° |
| 2026-04-25 11:38 | 67.96766 | -40.47807 | 35175 ft | 529 kts | 81° |
| 2026-04-25 11:39 | 67.98086 | -40.28457 | 35176 ft | 529 kts | 81° |
| 2026-04-25 11:39 | 67.99636 | -40.09207 | 35178 ft | 531 kts | 76° |
| 2026-04-25 11:40 | 68.01963 | -39.90505 | 35161 ft | 533 kts | 68° |
| 2026-04-25 11:40 | 68.05070 | -39.72478 | 35160 ft | 533 kts | 63° |
| 2026-04-25 11:41 | 68.08444 | -39.54795 | 35160 ft | 532 kts | 63° |
| 2026-04-25 11:41 | 68.11773 | -39.37196 | 35158 ft | 532 kts | 63° |
| 2026-04-25 11:42 | 68.15084 | -39.19398 | 35150 ft | 532 kts | 63° |
| 2026-04-25 11:42 | 68.18368 | -39.01537 | 35165 ft | 531 kts | 64° |
| 2026-04-25 11:43 | 68.21619 | -38.83666 | 35155 ft | 531 kts | 64° |
| 2026-04-25 11:43 | 68.24850 | -38.65749 | 35155 ft | 531 kts | 64° |
| 2026-04-25 11:44 | 68.28047 | -38.47871 | 35155 ft | 531 kts | 64° |
| 2026-04-25 11:44 | 68.31249 | -38.29807 | 35160 ft | 531 kts | 65° |
| 2026-04-25 11:45 | 68.34424 | -38.11742 | 35151 ft | 531 kts | 65° |
| 2026-04-25 11:45 | 68.37573 | -37.93649 | 35143 ft | 531 kts | 65° |
| 2026-04-25 11:46 | 68.40709 | -37.75469 | 35146 ft | 531 kts | 65° |
| 2026-04-25 11:46 | 68.43830 | -37.57211 | 35148 ft | 531 kts | 65° |
| 2026-04-25 11:47 | 68.46918 | -37.38973 | 35129 ft | 526 kts | 65° |
| 2026-04-25 11:47 | 68.49931 | -37.21028 | 35147 ft | 522 kts | 66° |
| 2026-04-25 11:48 | 68.52942 | -37.02931 | 35141 ft | 522 kts | 66° |
| 2026-04-25 11:48 | 68.55924 | -36.84844 | 35144 ft | 522 kts | 66° |
| 2026-04-25 11:49 | 68.58890 | -36.66686 | 35154 ft | 522 kts | 66° |
| 2026-04-25 11:49 | 68.61841 | -36.48446 | 35147 ft | 523 kts | 66° |
| 2026-04-25 11:50 | 68.64756 | -36.30267 | 35140 ft | 523 kts | 66° |
| 2026-04-25 11:50 | 68.67668 | -36.11931 | 35140 ft | 523 kts | 67° |
| 2026-04-25 11:51 | 68.70558 | -35.93567 | 35144 ft | 523 kts | 67° |
| 2026-04-25 11:51 | 68.73432 | -35.75125 | 35139 ft | 523 kts | 67° |
| 2026-04-25 11:52 | 68.76260 | -35.56780 | 35156 ft | 524 kts | 67° |
| 2026-04-25 11:52 | 68.79104 | -35.38173 | 35148 ft | 525 kts | 67° |
| 2026-04-25 11:53 | 68.81930 | -35.19526 | 35147 ft | 525 kts | 67° |
| 2026-04-25 11:53 | 68.84736 | -35.00817 | 35147 ft | 525 kts | 68° |
| 2026-04-25 11:54 | 68.87516 | -34.82091 | 35141 ft | 525 kts | 68° |
| 2026-04-25 11:55 | 68.91650 | -34.53849 | 35126 ft | 527 kts | 67° |
| 2026-04-25 11:55 | 68.94377 | -34.35035 | 35123 ft | 527 kts | 68° |
| 2026-04-25 11:56 | 68.97103 | -34.16029 | 35126 ft | 527 kts | 68° |
| 2026-04-25 11:56 | 68.99799 | -33.97029 | 35123 ft | 527 kts | 68° |
| 2026-04-25 11:57 | 69.02474 | -33.77978 | 35136 ft | 528 kts | 69° |
| 2026-04-25 11:57 | 69.04695 | -33.62051 | 35137 ft | 529 kts | 69° |
| 2026-04-25 11:58 | 69.07339 | -33.42830 | 35137 ft | 529 kts | 69° |
| 2026-04-25 11:58 | 69.09966 | -33.23535 | 35136 ft | 529 kts | 69° |
| 2026-04-25 11:59 | 69.12569 | -33.04223 | 35140 ft | 529 kts | 69° |
| 2026-04-25 11:59 | 69.15149 | -32.84877 | 35140 ft | 529 kts | 70° |
| 2026-04-25 12:00 | 69.18982 | -32.55812 | 35100 ft | 526 kts | 71° |
| 2026-04-25 12:01 | 69.22725 | -32.26844 | 35111 ft | 526 kts | 71° |
| 2026-04-25 12:01 | 69.25207 | -32.07393 | 35115 ft | 526 kts | 71° |
| 2026-04-25 12:02 | 69.28890 | -31.78126 | 35130 ft | 529 kts | 71° |
| 2026-04-25 12:02 | 69.31332 | -31.58459 | 35127 ft | 529 kts | 71° |
| 2026-04-25 12:03 | 69.33740 | -31.38846 | 35127 ft | 529 kts | 72° |
| 2026-04-25 12:03 | 69.36134 | -31.19105 | 35124 ft | 529 kts | 72° |
| 2026-04-25 12:04 | 69.38504 | -30.99338 | 35122 ft | 529 kts | 72° |
| 2026-04-25 12:04 | 69.40859 | -30.79460 | 35095 ft | 532 kts | 72° |
| 2026-04-25 12:05 | 69.43200 | -30.59450 | 35112 ft | 532 kts | 73° |
| 2026-04-25 12:05 | 69.45515 | -30.39394 | 35116 ft | 532 kts | 73° |
| 2026-04-25 12:06 | 69.47805 | -30.19301 | 35124 ft | 532 kts | 73° |
| 2026-04-25 12:06 | 69.49663 | -29.98922 | 35127 ft | 530 kts | 81° |
| 2026-04-25 12:07 | 69.50648 | -29.78235 | 35131 ft | 527 kts | 88° |
| 2026-04-25 12:07 | 69.51192 | -29.57311 | 35132 ft | 527 kts | 89° |
| 2026-04-25 12:08 | 69.51697 | -29.36388 | 35101 ft | 528 kts | 89° |
| 2026-04-25 12:08 | 69.52198 | -29.15398 | 35103 ft | 528 kts | 89° |
| 2026-04-25 12:09 | 69.52678 | -28.94635 | 35059 ft | 528 kts | 89° |
| 2026-04-25 12:09 | 69.53144 | -28.73672 | 35085 ft | 528 kts | 90° |
| 2026-04-25 12:10 | 69.53581 | -28.52668 | 35097 ft | 528 kts | 90° |
| 2026-04-25 12:10 | 69.53991 | -28.31656 | 35065 ft | 528 kts | 90° |
| 2026-04-25 12:11 | 69.54377 | -28.10632 | 35069 ft | 528 kts | 90° |
| 2026-04-25 12:11 | 69.54739 | -27.89618 | 35056 ft | 528 kts | 91° |
| 2026-04-25 12:12 | 69.55021 | -27.72132 | 35064 ft | 528 kts | 91° |
| 2026-04-25 12:12 | 69.55388 | -27.47656 | 35028 ft | 529 kts | 91° |
| 2026-04-25 12:13 | 69.55673 | -27.26568 | 35037 ft | 529 kts | 92° |
| 2026-04-25 12:13 | 69.55934 | -27.05486 | 35051 ft | 529 kts | 92° |
| 2026-04-25 12:14 | 69.56169 | -26.84411 | 35040 ft | 529 kts | 92° |
| 2026-04-25 12:14 | 69.56379 | -26.63322 | 35046 ft | 529 kts | 92° |
| 2026-04-25 12:15 | 69.56567 | -26.42211 | 35006 ft | 529 kts | 93° |
| 2026-04-25 12:15 | 69.56726 | -26.21256 | 35091 ft | 528 kts | 93° |
| 2026-04-25 12:16 | 69.56858 | -26.00222 | 35093 ft | 528 kts | 93° |
| 2026-04-25 12:16 | 69.56966 | -25.79197 | 35129 ft | 527 kts | 94° |
| 2026-04-25 12:17 | 69.57048 | -25.58281 | 35128 ft | 527 kts | 94° |
| 2026-04-25 12:17 | 69.57107 | -25.37237 | 35136 ft | 528 kts | 94° |
| 2026-04-25 12:18 | 69.57139 | -25.16070 | 35137 ft | 530 kts | 94° |
| 2026-04-25 12:18 | 69.57147 | -24.94971 | 35152 ft | 530 kts | 94° |
| 2026-04-25 12:19 | 69.57111 | -24.63246 | 35147 ft | 530 kts | 95° |
| 2026-04-25 12:20 | 69.57056 | -24.42095 | 35176 ft | 530 kts | 95° |
| 2026-04-25 12:20 | 69.56976 | -24.20952 | 35168 ft | 531 kts | 95° |
| 2026-04-25 12:21 | 69.56870 | -23.99786 | 35179 ft | 532 kts | 95° |
| 2026-04-25 12:21 | 69.56740 | -23.78696 | 35179 ft | 532 kts | 96° |
| 2026-04-25 12:22 | 69.56581 | -23.57474 | 35180 ft | 532 kts | 96° |
| 2026-04-25 12:22 | 69.56396 | -23.36264 | 35179 ft | 532 kts | 96° |
| 2026-04-25 12:23 | 69.56186 | -23.15076 | 35192 ft | 532 kts | 96° |
| 2026-04-25 12:23 | 69.55947 | -22.93807 | 35183 ft | 536 kts | 96° |
| 2026-04-25 12:24 | 69.55684 | -22.72457 | 35191 ft | 536 kts | 96° |
| 2026-04-25 12:24 | 69.55398 | -22.51246 | 35184 ft | 536 kts | 97° |
| 2026-04-25 12:25 | 69.55082 | -22.29900 | 35182 ft | 536 kts | 97° |
| 2026-04-25 12:25 | 69.54741 | -22.08566 | 35186 ft | 536 kts | 97° |
| 2026-04-25 12:26 | 69.54373 | -21.87253 | 35190 ft | 536 kts | 97° |
| 2026-04-25 12:26 | 69.53979 | -21.65941 | 35139 ft | 535 kts | 97° |
| 2026-04-25 12:27 | 69.53564 | -21.44840 | 35178 ft | 533 kts | 98° |
| 2026-04-25 12:27 | 69.53120 | -21.23655 | 35183 ft | 533 kts | 98° |
| 2026-04-25 12:28 | 69.52651 | -21.02504 | 35186 ft | 533 kts | 98° |
| 2026-04-25 12:28 | 69.52152 | -20.81353 | 35190 ft | 535 kts | 98° |
| 2026-04-25 12:29 | 69.51629 | -20.60086 | 35191 ft | 536 kts | 98° |
| 2026-04-25 12:29 | 69.51080 | -20.38819 | 35200 ft | 536 kts | 98° |
| 2026-04-25 12:30 | 69.50600 | -20.21138 | 35198 ft | 536 kts | 99° |
| 2026-04-25 12:30 | 69.49906 | -19.96446 | 35210 ft | 536 kts | 98° |
| 2026-04-25 12:31 | 69.49449 | -19.75152 | 35211 ft | 537 kts | 97° |
| 2026-04-25 12:31 | 69.48997 | -19.53757 | 35220 ft | 540 kts | 97° |
| 2026-04-25 12:32 | 69.48506 | -19.32348 | 35216 ft | 540 kts | 98° |
| 2026-04-25 12:32 | 69.47978 | -19.10963 | 35202 ft | 538 kts | 98° |
| 2026-04-25 12:33 | 69.47422 | -18.89699 | 35225 ft | 537 kts | 98° |
| 2026-04-25 12:33 | 69.46839 | -18.68428 | 35248 ft | 537 kts | 98° |
| 2026-04-25 12:34 | 69.46228 | -18.47276 | 35241 ft | 539 kts | 98° |
| 2026-04-25 12:34 | 69.45592 | -18.25925 | 35241 ft | 539 kts | 98° |
| 2026-04-25 12:35 | 69.44932 | -18.04627 | 35257 ft | 539 kts | 98° |
| 2026-04-25 12:35 | 69.44244 | -17.83331 | 35257 ft | 539 kts | 99° |
| 2026-04-25 12:36 | 69.43528 | -17.62024 | 35270 ft | 539 kts | 99° |
| 2026-04-25 12:36 | 69.42779 | -17.40720 | 35271 ft | 542 kts | 98° |
| 2026-04-25 12:37 | 69.42015 | -17.19491 | 35282 ft | 542 kts | 99° |
| 2026-04-25 12:37 | 69.41221 | -16.98140 | 35282 ft | 542 kts | 99° |
| 2026-04-25 12:38 | 69.40399 | -16.76818 | 35293 ft | 542 kts | 99° |
| 2026-04-25 12:38 | 69.39551 | -16.55538 | 35273 ft | 540 kts | 99° |
| 2026-04-25 12:39 | 69.38673 | -16.34325 | 35302 ft | 541 kts | 99° |
| 2026-04-25 12:39 | 69.37775 | -16.13084 | 35299 ft | 542 kts | 99° |
| 2026-04-25 12:40 | 69.36852 | -15.91850 | 35315 ft | 542 kts | 99° |
| 2026-04-25 12:40 | 69.35901 | -15.70628 | 35314 ft | 542 kts | 99° |
| 2026-04-25 12:41 | 69.34929 | -15.49563 | 35333 ft | 542 kts | 100° |
| 2026-04-25 12:41 | 69.33919 | -15.28335 | 35338 ft | 544 kts | 99° |
| 2026-04-25 12:42 | 69.32883 | -15.07070 | 35348 ft | 545 kts | 100° |
| 2026-04-25 12:42 | 69.31823 | -14.85786 | 35343 ft | 545 kts | 100° |
| 2026-04-25 12:43 | 69.30736 | -14.64532 | 35349 ft | 545 kts | 100° |
| 2026-04-25 12:43 | 69.29247 | -14.36262 | 35345 ft | 545 kts | 101° |
| 2026-04-25 12:44 | 69.28088 | -14.15026 | 35325 ft | 547 kts | 100° |
| 2026-04-25 12:45 | 69.26314 | -13.83187 | 35363 ft | 546 kts | 100° |
| 2026-04-25 12:45 | 69.24484 | -13.51427 | 35364 ft | 546 kts | 101° |
| 2026-04-25 12:46 | 69.23238 | -13.30428 | 35375 ft | 546 kts | 101° |
| 2026-04-25 12:46 | 69.21951 | -13.09313 | 35381 ft | 547 kts | 100° |
| 2026-04-25 12:47 | 69.20644 | -12.88165 | 35383 ft | 547 kts | 101° |
| 2026-04-25 12:47 | 69.19315 | -12.67056 | 35382 ft | 547 kts | 101° |
| 2026-04-25 12:48 | 69.17955 | -12.45954 | 35384 ft | 547 kts | 101° |
| 2026-04-25 12:48 | 69.16568 | -12.24884 | 35390 ft | 547 kts | 101° |
| 2026-04-25 12:49 | 69.15150 | -12.03858 | 35396 ft | 549 kts | 101° |
| 2026-04-25 12:49 | 69.13713 | -11.82892 | 35391 ft | 550 kts | 101° |
| 2026-04-25 12:50 | 69.12245 | -11.61798 | 35378 ft | 549 kts | 101° |
| 2026-04-25 12:50 | 69.10752 | -11.40784 | 35388 ft | 548 kts | 101° |
| 2026-04-25 12:51 | 69.09233 | -11.19802 | 35395 ft | 548 kts | 102° |
| 2026-04-25 12:51 | 69.07688 | -10.98865 | 35395 ft | 548 kts | 102° |
| 2026-04-25 12:52 | 69.06118 | -10.77970 | 35396 ft | 548 kts | 102° |
| 2026-04-25 12:52 | 69.04522 | -10.57109 | 35399 ft | 548 kts | 102° |
| 2026-04-25 12:53 | 69.02900 | -10.36290 | 35399 ft | 548 kts | 102° |
| 2026-04-25 12:53 | 69.01258 | -10.15617 | 35399 ft | 548 kts | 103° |
| 2026-04-25 12:54 | 68.99643 | -9.94828 | 35415 ft | 549 kts | 100° |
| 2026-04-25 12:54 | 68.98223 | -9.73801 | 35400 ft | 551 kts | 100° |
| 2026-04-25 12:55 | 68.97034 | -9.56300 | 35399 ft | 551 kts | 100° |
| 2026-04-25 12:55 | 68.95330 | -9.31923 | 35398 ft | 551 kts | 101° |
| 2026-04-25 12:56 | 68.93827 | -9.10978 | 35377 ft | 550 kts | 101° |
| 2026-04-25 12:56 | 68.92299 | -8.90134 | 35412 ft | 549 kts | 100° |
| 2026-04-25 12:57 | 68.90745 | -8.69309 | 35401 ft | 550 kts | 100° |
| 2026-04-25 12:57 | 68.89171 | -8.48481 | 35402 ft | 550 kts | 101° |
| 2026-04-25 12:58 | 68.87582 | -8.27843 | 35393 ft | 550 kts | 101° |
| 2026-04-25 12:58 | 68.85953 | -8.07061 | 35390 ft | 550 kts | 101° |
| 2026-04-25 12:59 | 68.84294 | -7.86311 | 35415 ft | 551 kts | 101° |
| 2026-04-25 12:59 | 68.82605 | -7.65543 | 35394 ft | 553 kts | 101° |
| 2026-04-25 13:00 | 68.81187 | -7.48274 | 35392 ft | 553 kts | 101° |
| 2026-04-25 13:00 | 68.79171 | -7.24148 | 35392 ft | 553 kts | 101° |
| 2026-04-25 13:01 | 68.77409 | -7.03446 | 35388 ft | 553 kts | 101° |
| 2026-04-25 13:01 | 68.75613 | -6.82741 | 35414 ft | 554 kts | 101° |
| 2026-04-25 13:02 | 68.73791 | -6.62050 | 35386 ft | 555 kts | 101° |
| 2026-04-25 13:02 | 68.71952 | -6.41386 | 35368 ft | 553 kts | 101° |
| 2026-04-25 13:03 | 68.70088 | -6.20786 | 35373 ft | 553 kts | 101° |
| 2026-04-25 13:03 | 68.68202 | -6.00279 | 35376 ft | 553 kts | 102° |
| 2026-04-25 13:04 | 68.66284 | -5.79792 | 35400 ft | 553 kts | 101° |
| 2026-04-25 13:04 | 68.64355 | -5.59410 | 35378 ft | 554 kts | 101° |
| 2026-04-25 13:05 | 68.62394 | -5.38914 | 35371 ft | 555 kts | 101° |
| 2026-04-25 13:05 | 68.60402 | -5.18446 | 35372 ft | 555 kts | 101° |
| 2026-04-25 13:06 | 68.58384 | -4.98027 | 35364 ft | 555 kts | 102° |
| 2026-04-25 13:06 | 68.56332 | -4.77623 | 35387 ft | 556 kts | 101° |
| 2026-04-25 13:07 | 68.54258 | -4.57225 | 35357 ft | 556 kts | 101° |
| 2026-04-25 13:07 | 68.52164 | -4.36855 | 35357 ft | 556 kts | 102° |
| 2026-04-25 13:08 | 68.50040 | -4.16500 | 35350 ft | 557 kts | 102° |
| 2026-04-25 13:08 | 68.47889 | -3.96177 | 35305 ft | 557 kts | 102° |
| 2026-04-25 13:09 | 68.45712 | -3.75975 | 35361 ft | 554 kts | 101° |
| 2026-04-25 13:09 | 68.43537 | -3.55960 | 35345 ft | 554 kts | 101° |
| 2026-04-25 13:10 | 68.41332 | -3.35879 | 35348 ft | 554 kts | 102° |
| 2026-04-25 13:10 | 68.39097 | -3.15812 | 35333 ft | 554 kts | 102° |
| 2026-04-25 13:11 | 68.36835 | -2.95776 | 35324 ft | 554 kts | 102° |
| 2026-04-25 13:11 | 68.34539 | -2.75784 | 35359 ft | 554 kts | 102° |
| 2026-04-25 13:12 | 68.32233 | -2.55847 | 35327 ft | 555 kts | 102° |
| 2026-04-25 13:12 | 68.30291 | -2.39229 | 35323 ft | 555 kts | 102° |
| 2026-04-25 13:13 | 68.27552 | -2.16101 | 35314 ft | 555 kts | 102° |
| 2026-04-25 13:13 | 68.25172 | -1.96285 | 35313 ft | 555 kts | 102° |
| 2026-04-25 13:14 | 68.22755 | -1.76477 | 35321 ft | 554 kts | 102° |
| 2026-04-25 13:14 | 68.20330 | -1.56741 | 35310 ft | 554 kts | 102° |
| 2026-04-25 13:15 | 68.17885 | -1.37048 | 35265 ft | 553 kts | 102° |
| 2026-04-25 13:15 | 68.15432 | -1.17568 | 35297 ft | 553 kts | 102° |
| 2026-04-25 13:16 | 68.12941 | -0.98002 | 35283 ft | 553 kts | 102° |
| 2026-04-25 13:16 | 68.10425 | -0.78481 | 35286 ft | 553 kts | 103° |
| 2026-04-25 13:17 | 68.07882 | -0.58973 | 35274 ft | 554 kts | 103° |
| 2026-04-25 13:17 | 68.05314 | -0.39510 | 35278 ft | 554 kts | 103° |
| 2026-04-25 13:18 | 68.02737 | -0.20220 | 35276 ft | 554 kts | 103° |
| 2026-04-25 13:18 | 68.00135 | -0.00801 | 35327 ft | 553 kts | 102° |
| 2026-04-25 13:19 | 67.97915 | 0.18692 | 35279 ft | 549 kts | 98° |
| 2026-04-25 13:19 | 67.96470 | 0.31770 | 35274 ft | 549 kts | 99° |
| 2026-04-25 13:20 | 67.93553 | 0.57706 | 35254 ft | 549 kts | 99° |
| 2026-04-25 13:20 | 67.91318 | 0.77165 | 35240 ft | 550 kts | 99° |
| 2026-04-25 13:21 | 67.89054 | 0.96609 | 35301 ft | 550 kts | 99° |
| 2026-04-25 13:21 | 67.86781 | 1.15829 | 35243 ft | 549 kts | 99° |
| 2026-04-25 13:22 | 67.84478 | 1.35181 | 35232 ft | 549 kts | 99° |
| 2026-04-25 13:23 | 67.80977 | 1.64138 | 35218 ft | 550 kts | 99° |
| 2026-04-25 13:23 | 67.78611 | 1.83411 | 35220 ft | 550 kts | 100° |
| 2026-04-25 13:24 | 67.76222 | 2.02598 | 35232 ft | 550 kts | 99° |
| 2026-04-25 13:24 | 67.73811 | 2.21799 | 35215 ft | 550 kts | 99° |
| 2026-04-25 13:25 | 67.71378 | 2.40967 | 35197 ft | 550 kts | 100° |
| 2026-04-25 13:25 | 67.68922 | 2.60089 | 35198 ft | 551 kts | 100° |
| 2026-04-25 13:26 | 67.66457 | 2.79055 | 35232 ft | 551 kts | 100° |
| 2026-04-25 13:26 | 67.63953 | 2.98078 | 35191 ft | 548 kts | 100° |
| 2026-04-25 13:27 | 67.61444 | 3.16971 | 35171 ft | 548 kts | 100° |
| 2026-04-25 13:27 | 67.58907 | 3.35883 | 35160 ft | 548 kts | 101° |
| 2026-04-25 13:28 | 67.56344 | 3.54765 | 35163 ft | 549 kts | 101° |
| 2026-04-25 13:28 | 67.53762 | 3.73598 | 35216 ft | 549 kts | 102° |
| 2026-04-25 13:29 | 67.51171 | 3.92308 | 35160 ft | 546 kts | 102° |
| 2026-04-25 13:29 | 67.48556 | 4.10930 | 35102 ft | 546 kts | 102° |
| 2026-04-25 13:30 | 67.44604 | 4.38748 | 35134 ft | 547 kts | 102° |
| 2026-04-25 13:31 | 67.41046 | 4.63490 | 35192 ft | 547 kts | 103° |
| 2026-04-25 13:31 | 67.38359 | 4.81950 | 35123 ft | 545 kts | 103° |
| 2026-04-25 13:32 | 67.35642 | 5.00328 | 35104 ft | 545 kts | 104° |
| 2026-04-25 13:32 | 67.32906 | 5.18700 | 35092 ft | 545 kts | 104° |
| 2026-04-25 13:33 | 67.30150 | 5.37045 | 35096 ft | 546 kts | 104° |
| 2026-04-25 13:33 | 67.27378 | 5.55357 | 35120 ft | 545 kts | 105° |
| 2026-04-25 13:34 | 67.24590 | 5.73566 | 35090 ft | 542 kts | 105° |
| 2026-04-25 13:34 | 67.21786 | 5.91672 | 35070 ft | 543 kts | 105° |
| 2026-04-25 13:35 | 67.18966 | 6.09722 | 35063 ft | 543 kts | 105° |
| 2026-04-25 13:35 | 67.16122 | 6.27764 | 35052 ft | 543 kts | 105° |
| 2026-04-25 13:36 | 67.13284 | 6.45630 | 35093 ft | 540 kts | 106° |
| 2026-04-25 13:36 | 67.10420 | 6.63442 | 35041 ft | 538 kts | 107° |
| 2026-04-25 13:37 | 67.07537 | 6.81215 | 35040 ft | 538 kts | 107° |
| 2026-04-25 13:37 | 67.04635 | 6.98934 | 35027 ft | 540 kts | 107° |
| 2026-04-25 13:38 | 67.01709 | 7.16664 | 35028 ft | 540 kts | 107° |
| 2026-04-25 13:38 | 66.98769 | 7.34334 | 35031 ft | 537 kts | 107° |
| 2026-04-25 13:39 | 66.95822 | 7.51841 | 35019 ft | 536 kts | 108° |
| 2026-04-25 13:39 | 66.92854 | 7.69326 | 34999 ft | 536 kts | 108° |
| 2026-04-25 13:40 | 66.89885 | 7.86660 | 35005 ft | 536 kts | 108° |
| 2026-04-25 13:40 | 66.86882 | 8.04043 | 34980 ft | 536 kts | 108° |
| 2026-04-25 13:41 | 66.83855 | 8.21400 | 34978 ft | 536 kts | 108° |
| 2026-04-25 13:41 | 66.80802 | 8.38733 | 34964 ft | 537 kts | 108° |
| 2026-04-25 13:42 | 66.77681 | 8.55960 | 34958 ft | 539 kts | 111° |
| 2026-04-25 13:42 | 66.73901 | 8.72536 | 34959 ft | 545 kts | 118° |
| 2026-04-25 13:43 | 66.69749 | 8.88422 | 34983 ft | 544 kts | 119° |
| 2026-04-25 13:43 | 66.65582 | 9.04294 | 34967 ft | 541 kts | 119° |
| 2026-04-25 13:44 | 66.61410 | 9.20101 | 34939 ft | 541 kts | 119° |
| 2026-04-25 13:44 | 66.57226 | 9.35867 | 34947 ft | 541 kts | 119° |
| 2026-04-25 13:45 | 66.56515 | 9.38534 | 34948 ft | 541 kts | 119° |
| 2026-04-25 13:45 | 66.48373 | 9.68865 | 34938 ft | 542 kts | 120° |
| 2026-04-25 13:46 | 66.44174 | 9.84357 | 34954 ft | 539 kts | 120° |
| 2026-04-25 13:46 | 66.39937 | 9.99860 | 34930 ft | 539 kts | 120° |
| 2026-04-25 13:47 | 66.35690 | 10.15294 | 34929 ft | 539 kts | 120° |
| 2026-04-25 13:47 | 66.31427 | 10.30683 | 34917 ft | 539 kts | 120° |
| 2026-04-25 13:48 | 66.27147 | 10.46025 | 34919 ft | 539 kts | 121° |
| 2026-04-25 13:48 | 66.22858 | 10.61307 | 34923 ft | 536 kts | 121° |
| 2026-04-25 13:49 | 66.19294 | 10.73907 | 34885 ft | 536 kts | 121° |
| 2026-04-25 13:49 | 66.14291 | 10.91475 | 34893 ft | 537 kts | 121° |
| 2026-04-25 13:50 | 66.10679 | 11.04079 | 34894 ft | 537 kts | 121° |
| 2026-04-25 13:50 | 66.06344 | 11.19114 | 34888 ft | 537 kts | 121° |
| 2026-04-25 13:51 | 66.02028 | 11.33991 | 34909 ft | 535 kts | 122° |
| 2026-04-25 13:51 | 65.97680 | 11.48859 | 34884 ft | 535 kts | 122° |
| 2026-04-25 13:52 | 65.93324 | 11.63651 | 34883 ft | 535 kts | 122° |
| 2026-04-25 13:52 | 65.88946 | 11.78422 | 34871 ft | 535 kts | 122° |
| 2026-04-25 13:53 | 65.84556 | 11.93125 | 34871 ft | 535 kts | 123° |
| 2026-04-25 13:53 | 65.80195 | 12.07649 | 34889 ft | 533 kts | 123° |
| 2026-04-25 13:54 | 65.75462 | 12.21695 | 34845 ft | 535 kts | 129° |
| 2026-04-25 13:54 | 65.70493 | 12.35221 | 34861 ft | 536 kts | 129° |
| 2026-04-25 13:55 | 65.65517 | 12.48720 | 34864 ft | 536 kts | 129° |
| 2026-04-25 13:55 | 65.60534 | 12.62154 | 34855 ft | 536 kts | 129° |
| 2026-04-25 13:56 | 65.55538 | 12.75545 | 34889 ft | 535 kts | 130° |
| 2026-04-25 13:56 | 65.50561 | 12.88798 | 34844 ft | 531 kts | 130° |
| 2026-04-25 13:57 | 65.45618 | 13.01869 | 34833 ft | 531 kts | 130° |
| 2026-04-25 13:57 | 65.40622 | 13.15001 | 34822 ft | 531 kts | 130° |
| 2026-04-25 13:58 | 65.35617 | 13.28081 | 34821 ft | 531 kts | 130° |
| 2026-04-25 13:58 | 65.30592 | 13.41131 | 34814 ft | 532 kts | 130° |
| 2026-04-25 13:59 | 65.25568 | 13.54122 | 34825 ft | 530 kts | 131° |
| 2026-04-25 13:59 | 65.20539 | 13.67026 | 34819 ft | 530 kts | 131° |
| 2026-04-25 14:00 | 65.15502 | 13.79871 | 34811 ft | 530 kts | 131° |
| 2026-04-25 14:00 | 65.10476 | 13.92615 | 34812 ft | 531 kts | 131° |
| 2026-04-25 14:01 | 65.05419 | 14.05365 | 34809 ft | 531 kts | 131° |
| 2026-04-25 14:01 | 65.00358 | 14.18060 | 34818 ft | 528 kts | 132° |
| 2026-04-25 14:02 | 64.95309 | 14.30637 | 34796 ft | 527 kts | 132° |
| 2026-04-25 14:02 | 64.90249 | 14.43162 | 34786 ft | 527 kts | 132° |
| 2026-04-25 14:03 | 64.85169 | 14.55670 | 34785 ft | 528 kts | 132° |
| 2026-04-25 14:03 | 64.80079 | 14.68131 | 34788 ft | 528 kts | 132° |
| 2026-04-25 14:04 | 64.74979 | 14.80551 | 34786 ft | 527 kts | 133° |
| 2026-04-25 14:04 | 64.69919 | 14.92798 | 34783 ft | 526 kts | 133° |
| 2026-04-25 14:05 | 64.64823 | 15.05054 | 34766 ft | 526 kts | 133° |
| 2026-04-25 14:05 | 64.59708 | 15.17290 | 34764 ft | 526 kts | 133° |
| 2026-04-25 14:06 | 64.54582 | 15.29482 | 34762 ft | 526 kts | 133° |
| 2026-04-25 14:06 | 64.49451 | 15.41616 | 34759 ft | 526 kts | 133° |
| 2026-04-25 14:07 | 64.44300 | 15.53729 | 34751 ft | 527 kts | 133° |
| 2026-04-25 14:07 | 64.39137 | 15.65802 | 34751 ft | 527 kts | 133° |
| 2026-04-25 14:08 | 64.33967 | 15.77823 | 34747 ft | 527 kts | 133° |
| 2026-04-25 14:08 | 64.28814 | 15.89737 | 34750 ft | 527 kts | 134° |
| 2026-04-25 14:09 | 64.23628 | 16.01659 | 34764 ft | 527 kts | 134° |
| 2026-04-25 14:09 | 64.18451 | 16.13502 | 34746 ft | 523 kts | 134° |
| 2026-04-25 14:10 | 64.13279 | 16.25255 | 34747 ft | 523 kts | 134° |
| 2026-04-25 14:10 | 64.08104 | 16.36953 | 34743 ft | 523 kts | 134° |
| 2026-04-25 14:11 | 64.02916 | 16.48617 | 34724 ft | 523 kts | 134° |
| 2026-04-25 14:11 | 63.97717 | 16.60244 | 34736 ft | 524 kts | 134° |
| 2026-04-25 14:12 | 63.92538 | 16.71764 | 34741 ft | 523 kts | 135° |
| 2026-04-25 14:12 | 63.87319 | 16.83306 | 34729 ft | 523 kts | 135° |
| 2026-04-25 14:13 | 63.82087 | 16.94813 | 34728 ft | 523 kts | 135° |
| 2026-04-25 14:13 | 63.76867 | 17.06231 | 34715 ft | 523 kts | 135° |
| 2026-04-25 14:14 | 63.71614 | 17.17659 | 34716 ft | 523 kts | 135° |
| 2026-04-25 14:14 | 63.66367 | 17.29019 | 34717 ft | 522 kts | 135° |
| 2026-04-25 14:15 | 63.61120 | 17.40315 | 34707 ft | 522 kts | 135° |
| 2026-04-25 14:15 | 63.55895 | 17.51498 | 34696 ft | 522 kts | 136° |
| 2026-04-25 14:16 | 63.50620 | 17.62729 | 34697 ft | 522 kts | 136° |
| 2026-04-25 14:16 | 63.45346 | 17.73899 | 34688 ft | 521 kts | 136° |
| 2026-04-25 14:17 | 63.40063 | 17.85029 | 34700 ft | 521 kts | 136° |
| 2026-04-25 14:17 | 63.34784 | 17.96101 | 34686 ft | 520 kts | 136° |
| 2026-04-25 14:18 | 63.29518 | 18.07074 | 34689 ft | 519 kts | 136° |
| 2026-04-25 14:18 | 63.24232 | 18.18033 | 34687 ft | 519 kts | 136° |
| 2026-04-25 14:19 | 63.18934 | 18.28960 | 34676 ft | 520 kts | 137° |
| 2026-04-25 14:19 | 63.13625 | 18.39856 | 34676 ft | 520 kts | 137° |
| 2026-04-25 14:20 | 63.08304 | 18.50723 | 34678 ft | 520 kts | 137° |
| 2026-04-25 14:20 | 63.02975 | 18.61540 | 34675 ft | 519 kts | 137° |
| 2026-04-25 14:21 | 62.97648 | 18.72300 | 34671 ft | 519 kts | 137° |
| 2026-04-25 14:21 | 62.92343 | 18.82961 | 34672 ft | 519 kts | 137° |
| 2026-04-25 14:22 | 62.86998 | 18.93648 | 34665 ft | 520 kts | 137° |
| 2026-04-25 14:22 | 62.81632 | 19.04327 | 34664 ft | 519 kts | 138° |
| 2026-04-25 14:23 | 62.76290 | 19.14897 | 34660 ft | 518 kts | 138° |
| 2026-04-25 14:23 | 62.70925 | 19.25462 | 34649 ft | 518 kts | 138° |
| 2026-04-25 14:24 | 62.65561 | 19.35968 | 34648 ft | 518 kts | 138° |
| 2026-04-25 14:24 | 62.60183 | 19.46448 | 34655 ft | 519 kts | 138° |
| 2026-04-25 14:25 | 62.54796 | 19.56899 | 34642 ft | 521 kts | 139° |
| 2026-04-25 14:25 | 62.49416 | 19.67277 | 34644 ft | 520 kts | 139° |
| 2026-04-25 14:26 | 62.44000 | 19.77671 | 34629 ft | 521 kts | 139° |
| 2026-04-25 14:26 | 62.38546 | 19.88086 | 34635 ft | 523 kts | 139° |
| 2026-04-25 14:27 | 62.33096 | 19.98440 | 34624 ft | 521 kts | 139° |
| 2026-04-25 14:27 | 62.27676 | 20.08694 | 34604 ft | 521 kts | 140° |
| 2026-04-25 14:28 | 62.22203 | 20.18996 | 34603 ft | 525 kts | 140° |
| 2026-04-25 14:28 | 62.16700 | 20.29287 | 34609 ft | 523 kts | 140° |
| 2026-04-25 14:29 | 62.11243 | 20.39449 | 34592 ft | 521 kts | 140° |
| 2026-04-25 14:29 | 62.05765 | 20.49617 | 34590 ft | 523 kts | 140° |
| 2026-04-25 14:30 | 62.00255 | 20.59794 | 34572 ft | 527 kts | 140° |
| 2026-04-25 14:30 | 61.91975 | 20.74958 | 34575 ft | 520 kts | 140° |
| 2026-04-25 14:31 | 61.86485 | 20.84958 | 34548 ft | 521 kts | 140° |
| 2026-04-25 14:31 | 61.80963 | 20.94970 | 34544 ft | 525 kts | 141° |
| 2026-04-25 14:32 | 61.75387 | 21.05013 | 34539 ft | 523 kts | 141° |
| 2026-04-25 14:32 | 61.69854 | 21.14944 | 34543 ft | 520 kts | 140° |
| 2026-04-25 14:33 | 61.64326 | 21.24839 | 34528 ft | 524 kts | 140° |
| 2026-04-25 14:33 | 61.61539 | 21.29797 | 34355 ft | 524 kts | 141° |
| 2026-04-25 14:33 | 61.58749 | 21.34742 | 34130 ft | 524 kts | 141° |
| 2026-04-25 14:34 | 61.55963 | 21.39663 | 33922 ft | 522 kts | 141° |
| 2026-04-25 14:34 | 61.53200 | 21.44537 | 33688 ft | 517 kts | 141° |
| 2026-04-25 14:34 | 61.50450 | 21.49381 | 33455 ft | 514 kts | 141° |
| 2026-04-25 14:34 | 61.47720 | 21.54184 | 33197 ft | 509 kts | 141° |
| 2026-04-25 14:35 | 61.43211 | 21.62115 | 32726 ft | 511 kts | 141° |
| 2026-04-25 14:35 | 61.40483 | 21.66880 | 32460 ft | 510 kts | 142° |
| 2026-04-25 14:35 | 61.37753 | 21.71643 | 32195 ft | 514 kts | 142° |
| 2026-04-25 14:36 | 61.35003 | 21.76408 | 31920 ft | 512 kts | 142° |
| 2026-04-25 14:36 | 61.32272 | 21.81139 | 31544 ft | 509 kts | 142° |
| 2026-04-25 14:36 | 61.29536 | 21.85868 | 31077 ft | 509 kts | 142° |
| 2026-04-25 14:36 | 61.26820 | 21.90564 | 30521 ft | 507 kts | 142° |
| 2026-04-25 14:37 | 61.24103 | 21.95252 | 29922 ft | 506 kts | 143° |
| 2026-04-25 14:37 | 61.21387 | 21.99919 | 29195 ft | 507 kts | 143° |
| 2026-04-25 14:37 | 61.18665 | 22.04587 | 28433 ft | 507 kts | 143° |
| 2026-04-25 14:37 | 61.15902 | 22.09318 | 27633 ft | 506 kts | 144° |
| 2026-04-25 14:38 | 61.13224 | 22.13870 | 27104 ft | 500 kts | 143° |
| 2026-04-25 14:38 | 61.10558 | 22.18413 | 26663 ft | 492 kts | 144° |
| 2026-04-25 14:38 | 61.07926 | 22.22870 | 26284 ft | 483 kts | 143° |
| 2026-04-25 14:38 | 61.05347 | 22.27239 | 25950 ft | 476 kts | 144° |
| 2026-04-25 14:39 | 61.02794 | 22.31566 | 25576 ft | 473 kts | 143° |
| 2026-04-25 14:39 | 61.00250 | 22.35848 | 25090 ft | 470 kts | 143° |
| 2026-04-25 14:39 | 60.97732 | 22.40085 | 24647 ft | 465 kts | 143° |
| 2026-04-25 14:39 | 60.95230 | 22.44290 | 24220 ft | 461 kts | 145° |
| 2026-04-25 14:40 | 60.92746 | 22.48436 | 23776 ft | 457 kts | 143° |
| 2026-04-25 14:40 | 60.90294 | 22.52547 | 23369 ft | 453 kts | 143° |
| 2026-04-25 14:40 | 60.87858 | 22.56640 | 22882 ft | 449 kts | 143° |
| 2026-04-25 14:40 | 60.85604 | 22.61048 | 22476 ft | 445 kts | 136° |
| 2026-04-25 14:41 | 60.83612 | 22.65896 | 22101 ft | 445 kts | 130° |
| 2026-04-25 14:41 | 60.81845 | 22.71118 | 21688 ft | 444 kts | 127° |
| 2026-04-25 14:41 | 60.80184 | 22.76321 | 21193 ft | 441 kts | 126° |
| 2026-04-25 14:41 | 60.78519 | 22.81590 | 20786 ft | 436 kts | 125° |
| 2026-04-25 14:42 | 60.76873 | 22.86786 | 20404 ft | 433 kts | 126° |
| 2026-04-25 14:42 | 60.75763 | 22.90271 | 20115 ft | 432 kts | 126° |
| 2026-04-25 14:42 | 60.73588 | 22.97064 | 19455 ft | 429 kts | 126° |
| 2026-04-25 14:42 | 60.71956 | 23.02115 | 19012 ft | 425 kts | 124° |
| 2026-04-25 14:43 | 60.70332 | 23.07129 | 18641 ft | 421 kts | 124° |
| 2026-04-25 14:43 | 60.68724 | 23.12122 | 18244 ft | 418 kts | 127° |
| 2026-04-25 14:43 | 60.67124 | 23.17069 | 17839 ft | 415 kts | 127° |
| 2026-04-25 14:43 | 60.65530 | 23.21960 | 17369 ft | 412 kts | 127° |
| 2026-04-25 14:44 | 60.63941 | 23.26812 | 16929 ft | 408 kts | 126° |
| 2026-04-25 14:44 | 60.62369 | 23.31634 | 16558 ft | 410 kts | 126° |
| 2026-04-25 14:44 | 60.60785 | 23.36476 | 16099 ft | 408 kts | 126° |
| 2026-04-25 14:44 | 60.59224 | 23.41218 | 15624 ft | 406 kts | 125° |
| 2026-04-25 14:45 | 60.57658 | 23.45964 | 15202 ft | 402 kts | 125° |
| 2026-04-25 14:45 | 60.56101 | 23.50676 | 14813 ft | 398 kts | 125° |
| 2026-04-25 14:45 | 60.54565 | 23.55331 | 14452 ft | 394 kts | 125° |
| 2026-04-25 14:45 | 60.53036 | 23.59961 | 14038 ft | 393 kts | 125° |
| 2026-04-25 14:46 | 60.51496 | 23.64591 | 13566 ft | 391 kts | 126° |
| 2026-04-25 14:46 | 60.49975 | 23.69199 | 13203 ft | 387 kts | 126° |
| 2026-04-25 14:46 | 60.48489 | 23.73670 | 13046 ft | 374 kts | 127° |
| 2026-04-25 14:46 | 60.47058 | 23.77963 | 12962 ft | 361 kts | 127° |
| 2026-04-25 14:47 | 60.45675 | 23.82108 | 12870 ft | 348 kts | 128° |
| 2026-04-25 14:47 | 60.44815 | 23.84825 | 12692 ft | 344 kts | 120° |
| 2026-04-25 14:47 | 60.43999 | 23.90982 | 12448 ft | 335 kts | 92° |
| 2026-04-25 14:47 | 60.44170 | 23.95602 | 12397 ft | 323 kts | 84° |
| 2026-04-25 14:48 | 60.44462 | 24.00005 | 12354 ft | 310 kts | 83° |
| 2026-04-25 14:48 | 60.44744 | 24.04231 | 12306 ft | 302 kts | 83° |
| 2026-04-25 14:48 | 60.45013 | 24.08514 | 12054 ft | 302 kts | 83° |
| 2026-04-25 14:48 | 60.45258 | 24.12676 | 11717 ft | 302 kts | 84° |
| 2026-04-25 14:49 | 60.45498 | 24.16898 | 11401 ft | 300 kts | 83° |
| 2026-04-25 14:49 | 60.45733 | 24.21087 | 11120 ft | 297 kts | 83° |
| 2026-04-25 14:49 | 60.45964 | 24.25257 | 10797 ft | 297 kts | 84° |
| 2026-04-25 14:49 | 60.46148 | 24.29422 | 10489 ft | 296 kts | 85° |
| 2026-04-25 14:50 | 60.46310 | 24.33574 | 10210 ft | 293 kts | 86° |
| 2026-04-25 14:50 | 60.46468 | 24.37681 | 9933 ft | 291 kts | 86° |
| 2026-04-25 14:50 | 60.46620 | 24.41780 | 9635 ft | 290 kts | 86° |
| 2026-04-25 14:50 | 60.46772 | 24.45860 | 9357 ft | 289 kts | 86° |
| 2026-04-25 14:51 | 60.46926 | 24.49913 | 9049 ft | 287 kts | 86° |
| 2026-04-25 14:51 | 60.47080 | 24.53956 | 8731 ft | 287 kts | 85° |
| 2026-04-25 14:51 | 60.47231 | 24.57979 | 8432 ft | 285 kts | 87° |
| 2026-04-25 14:51 | 60.47236 | 24.61992 | 8132 ft | 283 kts | 94° |
| 2026-04-25 14:52 | 60.47002 | 24.65886 | 7847 ft | 281 kts | 100° |
| 2026-04-25 14:52 | 60.46657 | 24.69789 | 7573 ft | 280 kts | 101° |
| 2026-04-25 14:52 | 60.46293 | 24.73677 | 7297 ft | 279 kts | 101° |
| 2026-04-25 14:52 | 60.46055 | 24.76231 | 7113 ft | 278 kts | 101° |
| 2026-04-25 14:53 | 60.45583 | 24.81395 | 6730 ft | 277 kts | 101° |
| 2026-04-25 14:53 | 60.45237 | 24.85230 | 6449 ft | 276 kts | 100° |
| 2026-04-25 14:53 | 60.44892 | 24.89055 | 6173 ft | 275 kts | 100° |
| 2026-04-25 14:53 | 60.44703 | 24.92897 | 5842 ft | 274 kts | 81° |
| 2026-04-25 14:54 | 60.45356 | 24.96446 | 5524 ft | 266 kts | 50° |
| 2026-04-25 14:54 | 60.46569 | 24.99233 | 5274 ft | 261 kts | 43° |
| 2026-04-25 14:54 | 60.47803 | 25.01816 | 5214 ft | 250 kts | 42° |
| 2026-04-25 14:54 | 60.48964 | 25.04279 | 5149 ft | 241 kts | 43° |
| 2026-04-25 14:55 | 60.50110 | 25.06756 | 5081 ft | 240 kts | 43° |
| 2026-04-25 14:55 | 60.51249 | 25.09248 | 4822 ft | 241 kts | 44° |
| 2026-04-25 14:55 | 60.52186 | 25.12083 | 4466 ft | 248 kts | 72° |
| 2026-04-25 14:55 | 60.52205 | 25.15542 | 4170 ft | 248 kts | 110° |
| 2026-04-25 14:56 | 60.51288 | 25.18400 | 3921 ft | 240 kts | 140° |
| 2026-04-25 14:56 | 60.50033 | 25.20620 | 3688 ft | 238 kts | 143° |
| 2026-04-25 14:56 | 60.48766 | 25.22783 | 3459 ft | 236 kts | 142° |
| 2026-04-25 14:56 | 60.47478 | 25.24744 | 3190 ft | 228 kts | 159° |
| 2026-04-25 14:57 | 60.45940 | 25.25138 | 2980 ft | 210 kts | 196° |
| 2026-04-25 14:57 | 60.44723 | 25.23949 | 2979 ft | 185 kts | 224° |
| 2026-04-25 14:57 | 60.43851 | 25.22101 | 2997 ft | 180 kts | 234° |
| 2026-04-25 14:57 | 60.43069 | 25.20151 | 2974 ft | 173 kts | 234° |
| 2026-04-25 14:58 | 60.42319 | 25.18358 | 2792 ft | 162 kts | 233° |
| 2026-04-25 14:58 | 60.41596 | 25.16709 | 2585 ft | 153 kts | 233° |
| 2026-04-25 14:58 | 60.40886 | 25.15121 | 2429 ft | 152 kts | 232° |
| 2026-04-25 14:58 | 60.40172 | 25.13543 | 2241 ft | 151 kts | 232° |
| 2026-04-25 14:59 | 60.39462 | 25.11983 | 2064 ft | 151 kts | 232° |
| 2026-04-25 14:59 | 60.38750 | 25.10429 | 1872 ft | 150 kts | 232° |
| 2026-04-25 14:59 | 60.38038 | 25.08879 | 1667 ft | 150 kts | 231° |
| 2026-04-25 14:59 | 60.37328 | 25.07339 | 1498 ft | 149 kts | 232° |
| 2026-04-25 15:00 | 60.36626 | 25.05785 | 1253 ft | 149 kts | 232° |
| 2026-04-25 15:00 | 60.35941 | 25.04250 | 1040 ft | 149 kts | 232° |
| 2026-04-25 15:00 | 60.35251 | 25.02693 | 773 ft | 148 kts | 230° |
| 2026-04-25 15:00 | 60.34545 | 25.01173 | 596 ft | 148 kts | 230° |
| 2026-04-25 15:01 | 60.33855 | 24.99647 | 402 ft | 147 kts | 231° |
| 2026-04-25 15:01 | 60.33166 | 24.98140 | 261 ft | 145 kts | 230° |
| 2026-04-25 15:01 | 60.32534 | 24.96729 | 172 ft | 120 kts | 227° |
| 2026-04-25 15:01 | 60.32104 | 24.95781 | 171 ft | 66 kts | 227° |
| 2026-04-25 15:02 | 60.31865 | 24.95254 | 171 ft | 45 kts | 228° |
| 2026-04-25 15:02 | 60.31731 | 24.94954 | 171 ft | 42 kts | 228° |
| 2026-04-25 15:02 | 60.31502 | 24.94584 | 170 ft | 23 kts | 172° |
| 2026-04-25 15:02 | 60.31432 | 24.94666 | 170 ft | 0 kts | 136° |
| 2026-04-25 15:03 | 60.31429 | 24.94672 | 170 ft | 2 kts | 136° |
| 2026-04-25 15:03 | 60.31414 | 24.94711 | 170 ft | 5 kts | 119° |
| 2026-04-25 15:03 | 60.31410 | 24.94798 | 170 ft | 8 kts | 72° |
| 2026-04-25 15:04 | 60.31450 | 24.94904 | 170 ft | 11 kts | 47° |
| 2026-04-25 15:04 | 60.31500 | 24.95012 | 170 ft | 10 kts | 49° |
| 2026-04-25 15:04 | 60.31510 | 24.95129 | 170 ft | 9 kts | 109° |
| 2026-04-25 15:04 | 60.31510 | 24.95250 | 170 ft | 9 kts | 66° |
| 2026-04-25 15:05 | 60.31546 | 24.95354 | 170 ft | 9 kts | 49° |
| 2026-04-25 15:05 | 60.31589 | 24.95448 | 170 ft | 9 kts | 47° |
| 2026-04-25 15:05 | 60.31630 | 24.95542 | 170 ft | 9 kts | 57° |
| 2026-04-25 15:06 | 60.31660 | 24.95738 | 170 ft | 5 kts | 59° |
| 2026-04-25 15:06 | 60.31671 | 24.95791 | 170 ft | 3 kts | 90° |
| 2026-04-25 15:06 | 60.31663 | 24.95825 | 170 ft | 3 kts | 119° |
| 2026-04-25 15:06 | 60.31653 | 24.95847 | 170 ft | 2 kts | 135° |
| 2026-04-25 15:07 | 60.31641 | 24.95870 | 170 ft | 3 kts | 137° |
| 2026-04-25 15:07 | 60.31630 | 24.95890 | 170 ft | 2 kts | 137° |
| 2026-04-25 15:07 | 60.31622 | 24.95905 | 170 ft | 0 kts | 137° |